Temp Humidity Outside  Wind Hi       Low      Outside  Dew Wind Wind              Inside   Inside   Archive
Date Time Index    Temperature Chill Temperature Temperature Humidity Point Speed Hi Direction Rain Barometer Temperature Humidity Period
5/1/02 12:00 AM 49.4 49.4 49.4 49.8 49.1 100 49.4 0 0 --- 0 29.678 92.5 32 30
5/1/02 12:30 AM 49.1 49.1 49.1 49.6 48.5 100 49.1 0 0 --- 0 29.682 92.8 33 30
5/1/02 1:00 AM 48 48 48 48.8 47.5 100 48 0 0 --- 0 29.677 93 33 30
5/1/02 1:30 AM -- 47.9 47.9 48.2 47.6 -- -- 0 0 --- 0 29.683 92.6 33 30
5/1/02 2:00 AM -- 47.4 47.4 47.8 47.1 -- -- 0 0 --- 0 29.676 78.7 38 30
5/1/02 2:30 AM -- 46.9 46.9 47.3 46.1 -- -- 0 0 --- 0 29.673 76.1 40 30
5/1/02 3:00 AM -- 45.8 45.8 46.4 45.3 -- -- 0 0 --- 0 29.678 75.2 40 30
5/1/02 3:30 AM -- 45 45 45.6 44.2 -- -- 0 0 --- 0 29.687 74.8 40 30
5/1/02 4:00 AM -- 43.8 43.8 44.3 43.4 -- -- 0 0 --- 0 29.693 75.3 40 30
5/1/02 4:30 AM -- 43.3 43.3 43.9 42.3 -- -- 0 0 --- 0 29.701 77.4 39 30
5/1/02 5:00 AM -- 42.7 42.7 43.1 42.2 -- -- 0 0 --- 0 29.697 78.5 38 30
5/1/02 5:30 AM -- 42.3 42.3 42.7 41.7 -- -- 0 0 --- 0 29.699 77.7 37 30
5/1/02 6:00 AM -- 41.3 41.3 42 40 -- -- 0 0 --- 0 29.715 77.2 39 30
5/1/02 6:30 AM -- 41.1 41.1 41.9 40 -- -- 0 0 --- 0 29.72 77.7 38 30
5/1/02 7:00 AM -- 42.2 42.2 42.5 41.9 -- -- 0 0 --- 0 29.731 77 38 30
5/1/02 7:30 AM -- 44.6 44.6 46.4 42.4 -- -- 0 0 --- 0 29.739 75.7 38 30
5/1/02 8:00 AM -- 47.6 47.6 48.9 46.3 -- -- 0 0 --- 0 29.74 74.6 38 30
5/1/02 8:30 AM -- 50.2 50.2 51.6 48.9 -- -- 0 0 --- 0 29.746 73.7 38 30
5/1/02 9:00 AM -- 53 53 54.4 51.6 -- -- 0 0 --- 0 29.749 73.8 38 30
5/1/02 9:30 AM -- 55.7 55.7 56.5 54.4 -- -- 0 1 --- 0 29.748 74 38 30
5/1/02 10:00 AM -- 57.5 57.5 58.5 56.4 -- -- 0 5 SSE 0 29.753 73.8 38 30
5/1/02 10:30 AM -- 59.3 59.3 61 58 -- -- 0 4 SSE 0 29.747 73.5 38 30
5/1/02 11:00 AM -- 61.4 61.4 62.8 60.4 -- -- 0 6 SSE 0 29.749 73.1 38 30
5/1/02 11:30 AM -- 63.4 63.4 65.1 62 -- -- 0 5 E 0 29.744 72.8 38 30
5/1/02 12:00 PM -- 64.9 64.9 66.6 63.7 -- -- 0 5 SE 0 29.73 72.5 38 30
5/1/02 12:30 PM -- 66.1 66.1 67.3 65.1 -- -- 0 5 SSE 0 29.73 72.3 38 30
5/1/02 1:00 PM -- 66.8 66.8 68.1 65.8 -- -- 0 7 SSE 0 29.724 72.1 38 30
5/1/02 1:30 PM -- 68 68 69.2 66.7 -- -- 0 6 SSE 0 29.723 71.9 37 30
5/1/02 2:00 PM -- 67.7 67.7 69.4 65.6 -- -- 1 7 SSE 0 29.722 71.8 37 30
5/1/02 2:30 PM -- 68.2 68.2 70 65.4 -- -- 0 5 SSE 0 29.71 72.6 37 30
5/1/02 3:00 PM -- 69.4 69.4 70.5 68 -- -- 0 6 SSE 0 29.702 73.1 36 30
5/1/02 3:30 PM -- 69.5 69.5 70.4 68.5 -- -- 0 5 SSE 0 29.692 73.2 36 30
5/1/02 4:00 PM -- 69.8 69.8 70.5 69.1 -- -- 0 4 SSE 0 29.696 73.2 36 30
5/1/02 4:30 PM -- 69.3 69.3 70.1 68.5 -- -- 0 5 SSE 0 29.698 73.1 36 30
5/1/02 5:00 PM -- 68 68 68.9 67.3 -- -- 0 3 SSE 0 29.696 72.9 36 30
5/1/02 5:30 PM -- 67.8 67.8 68.5 67.1 -- -- 0 5 SSE 0 29.698 72.9 37 30
5/1/02 6:00 PM -- 67.3 67.3 67.8 66.6 -- -- 0 0 --- 0 29.699 73.4 38 30
5/1/02 6:30 PM -- 65.9 65.9 67 64.7 -- -- 0 0 --- 0 29.698 74.3 37 30
5/1/02 7:00 PM -- 65.2 65.2 65.7 64.3 -- -- 0 0 --- 0 29.711 74.6 37 30
5/1/02 7:30 PM -- 63.5 63.5 64.3 62.2 -- -- 0 0 --- 0 29.719 74.6 37 30
5/1/02 8:00 PM -- 61.3 61.3 62.2 60.5 -- -- 0 0 --- 0 29.733 74.5 41 30
5/1/02 8:30 PM -- 59.6 59.6 60.5 59 -- -- 0 0 --- 0 29.737 74.3 41 30
5/1/02 9:00 PM -- 59.8 59.8 61.8 57.8 -- -- 0 0 --- 0 29.748 74.5 43 30
5/1/02 9:30 PM -- 57.3 57.3 62 56 -- -- 0 0 --- 0 29.762 75 42 30
5/1/02 10:00 PM -- 56.1 56.1 56.5 55.5 -- -- 0 0 --- 0 29.759 75.3 41 30
5/1/02 10:30 PM -- 55.2 55.2 55.6 54.8 -- -- 0 0 --- 0 29.755 75.7 43 30
5/1/02 11:00 PM -- 54.1 54.1 55 52.9 -- -- 0 0 --- 0 29.75 76.9 42 30
5/1/02 11:30 PM -- 53.7 53.7 53.9 53.3 -- -- 0 0 --- 0 29.759 77.4 42 30
5/2/02 12:00 AM -- 53.9 53.9 54.2 53.6 -- -- 0 0 --- 0 29.757 78.8 42 30
5/2/02 12:30 AM -- 53.8 53.8 54.2 53.3 -- -- 0 0 --- 0 29.753 79.4 40 30
5/2/02 1:00 AM -- 53.5 53.5 53.9 53.2 -- -- 0 0 --- 0 29.74 78.9 41 30
5/2/02 1:30 AM -- 54 54 54.2 53.6 -- -- 0 0 --- 0 29.728 79.3 41 30
5/2/02 2:00 AM -- 54.5 54.5 54.7 53.9 -- -- 0 0 --- 0 29.714 79.5 41 30
5/2/02 2:30 AM -- 54.4 54.4 54.6 54.2 -- -- 0 0 --- 0 29.69 79.6 41 30
5/2/02 3:00 AM -- 54.5 54.5 54.9 54.2 -- -- 0 0 --- 0 29.696 79 41 30
5/2/02 3:30 AM -- 54.4 54.4 55.1 53.1 -- -- 0 0 --- 0 29.709 78.7 42 30
5/2/02 4:00 AM -- 53.2 53.2 53.7 52.7 -- -- 0 0 --- 0 29.696 78.4 42 30
5/2/02 4:30 AM -- 52.9 52.9 53.5 52.2 -- -- 0 0 --- 0 29.668 78 41 30
5/2/02 5:00 AM -- 52.7 52.7 53.1 52.3 -- -- 0 1 --- 0 29.677 77.8 40 30
5/2/02 5:30 AM -- 52.7 52.7 53 52.5 -- -- 0 0 --- 0 29.634 77.5 40 30
5/2/02 6:00 AM -- 52.6 52.6 52.8 52.4 -- -- 0 0 --- 0 29.619 77.2 40 30
5/2/02 6:30 AM -- 52.5 52.5 52.8 52.3 -- -- 0 0 --- 0 29.604 77 42 30
5/2/02 7:00 AM -- 52.3 52.3 52.7 52 -- -- 0 3 --- 0 29.594 76.3 42 30
5/2/02 7:30 AM -- 51.7 51.7 52.3 51.3 -- -- 0 3 NW 0 29.568 74.9 42 30
5/2/02 8:00 AM -- 51.7 51.7 52.3 51.3 -- -- 0 0 --- 0 29.554 73.9 42 30
5/2/02 8:30 AM -- 51.9 51.9 52.1 51.6 -- -- 0 2 NW 0 29.549 73.2 42 30
5/2/02 9:00 AM -- 50.8 50.8 51.5 50.2 -- -- 0 3 NNE 0 29.561 72.8 43 30
5/2/02 9:30 AM -- 49.9 49.9 50.3 49.6 -- -- 0 1 ESE 0 29.529 73.5 43 30
5/2/02 10:00 AM -- 49.7 49.7 49.9 49.4 -- -- 0 1 ESE 0 29.49 73.6 42 30
5/2/02 10:30 AM -- 50.5 50.5 51.2 49.7 -- -- 0 0 --- 0 29.472 73.4 42 30
5/2/02 11:00 AM -- 51.4 51.4 52.2 51 -- -- 0 0 --- 0 29.45 73 43 30
5/2/02 11:30 AM -- 52.8 52.8 53.3 52.1 -- -- 0 0 --- 0 29.426 72.5 43 30
5/2/02 12:00 PM -- 53.6 53.6 54.1 53 -- -- 0 0 --- 0 29.398 72.2 43 30
5/2/02 12:30 PM -- 54.7 54.7 55.2 54.1 -- -- 0 0 --- 0 29.392 71.9 43 30
5/2/02 1:00 PM -- 54.9 54.9 55.3 54.4 -- -- 0 0 --- 0 29.381 72.6 43 30
5/2/02 1:30 PM -- 55.7 55.7 56.3 55.1 -- -- 0 0 --- 0 29.379 73.1 42 30
5/2/02 2:00 PM -- 56.2 56.2 56.7 55.9 -- -- 0 0 --- 0 29.376 73.1 43 30
5/2/02 2:30 PM -- 57.2 57.2 58 56.6 -- -- 0 0 --- 0 29.358 72.8 43 30
5/2/02 3:00 PM -- 58 58 58.7 57.5 -- -- 0 0 --- 0 29.343 72.5 43 30
5/2/02 3:30 PM -- 60.3 60.3 62.9 58.7 -- -- 0 0 --- 0 29.337 72.3 43 30
5/2/02 4:00 PM -- 62.5 62.5 63.1 61.8 -- -- 0 0 --- 0 29.315 72.2 43 30
5/2/02 4:30 PM -- 62.6 62.6 63.5 61.7 -- -- 0 0 --- 0 29.318 72 43 30
5/2/02 5:00 PM -- 62.1 62.1 63.4 61 -- -- 0 0 --- 0 29.314 72 44 30
5/2/02 5:30 PM -- 62 62 63.8 60.2 -- -- 0 0 --- 0 29.312 72.1 45 30
5/2/02 6:00 PM -- 61.5 61.5 62.8 60.3 -- -- 0 0 --- 0 29.333 72 45 30
5/2/02 6:30 PM -- 60.3 60.3 62.1 58.8 -- -- 0 0 --- 0 29.328 71.8 45 30
5/2/02 7:00 PM -- 60.4 60.4 61.8 59.6 -- -- 0 0 --- 0 29.328 71.7 46 30
5/2/02 7:30 PM -- 60 60 61.7 58.9 -- -- 0 0 --- 0 29.303 71.8 46 30
5/2/02 8:00 PM -- 59 59 61.4 57.4 -- -- 0 0 --- 0 29.317 71.7 46 30
5/2/02 8:30 PM -- 57.4 57.4 57.9 57 -- -- 0 0 --- 0 29.32 72.3 47 30
5/2/02 9:00 PM 57.5 57.5 57.5 57.7 57.2 100 57.5 0 0 --- 0 29.307 81.9 42 30
5/2/02 9:30 PM 56.6 56.6 56.6 57.2 56.2 100 56.6 0 0 --- 0.4 29.294 85.8 39 30
5/2/02 10:00 PM 56.2 56.2 56.2 56.3 56 100 56.2 0 0 --- 0 29.32 86.4 38 30
5/2/02 10:30 PM 56.2 56.2 56.2 56.3 56 100 56.2 0 4 SE 0 29.337 87.4 37 30
5/2/02 11:00 PM 56.5 56.5 56.5 56.7 56.3 100 56.5 0 0 --- 0 29.332 87 37 30
5/2/02 11:30 PM 56.7 56.7 56.7 56.9 56.2 100 56.7 0 0 --- 0 29.337 87.4 37 30
5/3/02 12:00 AM 56.7 56.7 56.7 57 56.2 100 56.7 0 0 --- 0 29.364 86.9 38 30
5/3/02 12:30 AM 56.6 56.6 56.6 56.9 56.4 100 56.6 0 0 --- 0 29.39 86.9 38 30
5/3/02 1:00 AM 57.2 57.2 57.2 58.1 56.3 100 57.2 0 4 SSE 0 29.407 87.3 38 30
5/3/02 1:30 AM 57.7 57.7 57.7 58.1 57.3 100 57.7 0 5 SSE 0 29.426 86.7 37 30
5/3/02 2:00 AM 56.9 56.9 56.9 57.3 56.4 100 56.9 0 0 --- 0 29.433 86.8 38 30
5/3/02 2:30 AM 56.2 56.2 56.2 56.6 55.9 100 56.2 0 3 SSE 0 29.456 87.1 38 30
5/3/02 3:00 AM 56.4 56.4 56.4 56.8 56.1 100 56.4 0 0 --- 0 29.47 86.8 37 30
5/3/02 3:30 AM 56.1 56.1 56.1 56.3 55.7 100 56.1 0 1 --- 0 29.482 86.6 37 30
5/3/02 4:00 AM 55.8 55.8 55.8 56.2 55.4 100 55.8 0 4 S 0 29.494 86.6 38 30
5/3/02 4:30 AM 55.3 55.3 55.3 55.7 54.8 100 55.3 0 5 SE 0 29.51 87.3 38 30
5/3/02 5:00 AM 54.5 54.5 54.5 55 54 100 54.5 0 4 SE 0 29.53 86.4 37 30
5/3/02 5:30 AM 53.8 53.8 53.8 54.2 53.5 100 53.8 0 4 NNE 0 29.544 86.2 37 30
5/3/02 6:00 AM 53.4 53.4 53.4 53.8 53 100 53.4 1 5 SE 0 29.558 86.2 36 30
5/3/02 6:30 AM 52.8 52.8 52.8 53.4 52.2 100 52.8 0 6 SE 0 29.585 86 35 30
5/3/02 7:00 AM 52.1 52.1 52.1 52.3 51.9 100 52.1 0 7 NW 0 29.623 85.6 38 30
5/3/02 7:30 AM 52.8 52.8 52.8 53.4 52.2 100 52.8 1 8 SSE 0 29.642 86.6 37 30
5/3/02 8:00 AM 53.3 53.3 53.3 53.8 52.8 100 53.3 1 7 SSE 0 29.659 85.6 35 30
5/3/02 8:30 AM 53.1 53.1 53.1 53.9 52.6 100 53.1 0 11 SSE 0 29.67 85.3 34 30
5/3/02 9:00 AM 53.8 53.8 53.8 54.5 52.8 100 53.8 0 5 SSE 0 29.673 85 34 30
5/3/02 9:30 AM 54.8 54.8 54.8 55.8 54.1 100 54.8 1 7 SSE 0 29.679 84.4 33 30
5/3/02 10:00 AM 55.5 55.5 55.5 56.3 54.7 100 55.5 2 8 SSE 0 29.689 85.7 33 30
5/3/02 10:30 AM 56.3 56.3 56.3 57.5 55.2 100 56.3 2 11 SSE 0 29.688 85.5 32 30
5/3/02 11:00 AM 57.7 57.7 57.7 58.7 56.3 100 57.7 1 10 SE 0 29.688 85.1 31 30
5/3/02 11:30 AM 58.8 58.8 58.8 60.4 57.6 100 58.8 2 7 SSE 0 29.69 84.9 31 30
5/3/02 12:00 PM 59.9 59.9 59.9 61.3 58.8 100 59.9 2 10 SSE 0 29.681 84.7 37 30
5/3/02 12:30 PM 61.3 61.3 61.3 62.4 59.9 100 61.3 2 9 SSE 0 29.675 84.8 35 30
5/3/02 1:00 PM 61.8 61.8 61.8 63.4 60.4 100 61.8 3 13 SSE 0 29.686 84.7 36 30
5/3/02 1:30 PM 62.3 62.3 62.3 63.9 61.3 100 62.3 3 12 SSE 0 29.682 84.7 37 30
5/3/02 2:00 PM 61.9 61.9 61.9 64.4 59.7 100 61.9 3 10 SSE 0 29.694 84.5 34 30
5/3/02 2:30 PM 63.9 63.9 63.9 65.5 61.5 100 63.9 2 10 SSE 0 29.708 84.6 33 30
5/3/02 3:00 PM 63.9 63.9 63.9 66 62.4 100 63.9 2 9 SSE 0 29.72 86.1 31 30
5/3/02 3:30 PM 63.3 63.3 63.3 64.6 61.9 100 63.3 1 10 SE 0 29.726 85.3 31 30
5/3/02 4:00 PM 62 62 62 64.3 59.4 100 62 2 12 SSE 0 29.735 85.1 31 30
5/3/02 4:30 PM 60.7 60.7 60.7 62.3 59.4 100 60.7 2 10 SSE 0 29.752 85.2 31 30
5/3/02 5:00 PM 60.6 60.6 60.6 61.1 60.1 100 60.6 2 12 SSE 0 29.773 84.8 31 30
5/3/02 5:30 PM 59.7 59.7 59.7 60.8 59.1 100 59.7 2 10 SSE 0 29.793 84.5 31 30
5/3/02 6:00 PM 59 59 59 59.4 58.6 100 59 1 11 SSE 0 29.822 84.6 32 30
5/3/02 6:30 PM 58.2 58.2 58.2 58.6 57.7 100 58.2 1 9 SSE 0 29.831 84.5 31 30
5/3/02 7:00 PM 57.3 57.3 57.3 57.7 56.6 100 57.3 1 10 SSE 0 29.846 84.3 31 30
5/3/02 7:30 PM 56.1 56.1 56.1 56.6 55.8 100 56.1 1 10 SSE 0 29.861 84.6 32 30
5/3/02 8:00 PM 55.4 55.4 55.4 55.8 54.9 100 55.4 1 11 SSE 0 29.883 84.6 32 30
5/3/02 8:30 PM 54.3 54.3 54.3 54.9 53.8 100 54.3 0 5 SSE 0 29.913 84.5 32 30
5/3/02 9:00 PM 53.5 53.5 53.5 53.9 53 100 53.5 0 5 SSE 0 29.939 85.2 32 30
5/3/02 9:30 PM 52.7 52.7 52.7 53.1 52.3 100 52.7 0 3 SSE 0 29.96 85.6 31 30
5/3/02 10:00 PM 52 52 52 52.5 51.4 100 52 0 8 SE 0 29.978 85.9 31 30
5/3/02 10:30 PM 51.1 51.1 51.1 51.5 50.6 100 51.1 0 0 --- 0 29.984 85.9 30 30
5/3/02 11:00 PM 50.6 50.6 50.6 50.9 50 100 50.6 0 5 SSE 0 29.995 85.6 31 30
5/3/02 11:30 PM 49.7 49.7 49.7 50.6 48.5 100 49.7 0 3 SSE 0 30.013 86.2 31 30
5/4/02 12:00 AM 47.7 47.7 47.7 48.5 46.9 100 47.7 0 0 --- 0 30.033 85.6 30 30
5/4/02 12:30 AM 47.7 47.7 47.7 48.1 47.2 100 47.7 0 0 --- 0 30.042 86 30 30
5/4/02 1:00 AM 47.3 47.3 47.3 48 46.5 100 47.3 0 0 --- 0 30.047 85.4 31 30
5/4/02 1:30 AM 45.5 45.5 45.5 46.7 44.6 100 45.5 0 0 --- 0 30.058 86.6 30 30
5/4/02 2:00 AM 43.9 43.9 43.9 44.8 43.1 100 43.9 0 0 --- 0 30.072 85.6 30 30
5/4/02 2:30 AM 42.6 42.6 42.6 44.9 41 100 42.6 0 0 --- 0 30.085 85.2 30 30
5/4/02 3:00 AM 41.5 41.5 41.5 42.5 40.6 100 41.5 0 0 --- 0 30.09 85.4 30 30
5/4/02 3:30 AM 40.7 40.7 40.7 41.4 39.8 100 40.7 0 0 --- 0 30.103 86.1 30 30
5/4/02 4:00 AM 40.3 40.3 40.3 40.7 39.9 100 40.3 0 0 --- 0 30.111 86.1 29 30
5/4/02 4:30 AM 39.9 39.9 39.9 40.4 39.5 100 39.9 0 0 --- 0 30.123 86.3 29 30
5/4/02 5:00 AM 40 40 40 40.4 39.6 100 40 0 0 --- 0 30.136 86.1 28 30
5/4/02 5:30 AM 39.7 39.7 39.7 40.3 38.5 100 39.7 0 0 --- 0 30.137 86.1 28 30
5/4/02 6:00 AM 39.2 39.2 39.2 39.9 38.5 100 39.2 0 0 --- 0 30.148 87.2 30 30
5/4/02 6:30 AM 39.8 39.8 39.8 40.3 39.4 100 39.8 0 0 --- 0 30.15 86 31 30
5/4/02 7:00 AM 40.5 40.5 40.5 41.7 40.1 100 40.5 0 0 --- 0 30.16 85.4 30 30
5/4/02 7:30 AM 43.8 43.8 43.8 46.3 41.7 100 43.8 0 0 --- 0 30.171 85.5 30 30
5/4/02 8:00 AM 48.2 48.2 48.2 49.7 46.2 100 48.2 0 4 SSE 0 30.169 86.5 30 30
5/4/02 8:30 AM 50.2 50.2 50.2 51.4 49.5 100 50.2 0 5 SSE 0 30.19 87 30 30
5/4/02 9:00 AM 52.3 52.3 52.3 53.7 51.1 100 52.3 0 0 --- 0 30.207 87.1 29 30
5/4/02 9:30 AM 54.7 54.7 54.7 55.6 53.1 100 54.7 0 0 --- 0 30.201 86.9 30 30
5/4/02 10:00 AM 57.4 57.4 57.4 59.3 55.8 100 57.4 0 0 --- 0 30.204 86.5 29 30
5/4/02 10:30 AM 60.4 60.4 60.4 62.3 59.3 100 60.4 0 0 --- 0 30.206 86.4 29 30
5/4/02 11:00 AM 62.5 62.5 62.5 63.2 60.9 100 62.5 0 0 --- 0 30.191 86.3 29 30
5/4/02 11:30 AM 63.1 63.1 63.1 64.9 61.9 100 63.1 0 3 SSE 0 30.183 86.4 29 30
5/4/02 12:00 PM 65.3 65.3 65.3 66.7 63.4 100 65.3 0 0 --- 0 30.169 86.4 28 30
5/4/02 12:30 PM 66.3 66.3 66.3 68.6 64.2 100 66.3 0 4 SSE 0 30.163 86.3 29 30
5/4/02 1:00 PM 70 68 68 69.4 66.8 100 68 0 2 SSE 0 30.151 86.6 28 30
5/4/02 1:30 PM 72 69.4 69.4 70.5 68 100 69.4 0 1 --- 0 30.132 86.6 29 30
5/4/02 2:00 PM 74 70.1 70.1 70.7 69.3 100 70.1 0 0 --- 0 30.117 86.5 29 30
5/4/02 2:30 PM 74 70.3 70.3 71.7 68.5 100 70.3 0 3 SSE 0 30.112 86 29 30
5/4/02 3:00 PM 75 70.8 70.8 72 69.6 100 70.8 0 3 SSE 0 30.104 84.9 29 30
5/4/02 3:30 PM 75 70.8 70.8 72.9 68.9 100 70.8 0 1 S 0 30.085 84.6 30 30
5/4/02 4:00 PM 75 70.5 70.5 72.7 69.5 100 70.5 0 4 SSE 0 30.072 85.7 30 30
5/4/02 4:30 PM 72 68.9 68.9 70.4 66.7 100 68.9 0 1 --- 0 30.062 85.8 29 30
5/4/02 5:00 PM 70 68 68 68.8 66.5 100 68 0 1 --- 0 30.053 85.8 29 30
5/4/02 5:30 PM 66.6 66.6 66.6 67.5 65.9 100 66.6 0 3 SSE 0 30.044 85.6 29 30
5/4/02 6:00 PM 65.4 65.4 65.4 66.3 64.6 100 65.4 0 0 --- 0 30.041 85.9 30 30
5/4/02 6:30 PM 66.2 66.2 66.2 67.7 64.6 100 66.2 0 0 --- 0 30.054 85.7 32 30
5/4/02 7:00 PM 64.7 64.7 64.7 68.3 62.4 100 64.7 0 0 --- 0 30.061 85.1 31 30
5/4/02 7:30 PM 61.6 61.6 61.6 62.4 61 100 61.6 0 0 --- 0 30.052 84.8 31 30
5/4/02 8:00 PM 59.9 59.9 59.9 61 58.7 100 59.9 0 0 --- 0 30.06 85.2 31 30
5/4/02 8:30 PM 59.2 59.2 59.2 59.6 58.7 100 59.2 0 2 SSE 0 30.078 84.4 31 30
5/4/02 9:00 PM 58.5 58.5 58.5 58.8 58.2 100 58.5 0 0 --- 0 30.086 84.1 31 30
5/4/02 9:30 PM 58.3 58.3 58.3 58.4 58 100 58.3 0 0 --- 0 30.077 84.1 31 30
5/4/02 10:00 PM 57.6 57.6 57.6 58 57.3 100 57.6 0 0 --- 0 30.083 84.1 31 30
5/4/02 10:30 PM 56.7 56.7 56.7 57.4 56.2 100 56.7 0 0 --- 0 30.085 84 31 30
5/4/02 11:00 PM 55.8 55.8 55.8 56.2 55.5 100 55.8 0 0 --- 0 30.075 84 31 30
5/4/02 11:30 PM 55.2 55.2 55.2 55.8 53.9 100 55.2 0 0 --- 0 30.087 85.5 31 30
5/5/02 12:00 AM 53 53 53 53.9 52.4 100 53 0 0 --- 0 30.09 86.3 30 30
5/5/02 12:30 AM 52.1 52.1 52.1 52.7 51.5 100 52.1 0 0 --- 0 30.102 85.4 29 30
5/5/02 1:00 AM 51.5 51.5 51.5 51.8 51.1 100 51.5 0 0 --- 0 30.104 85.5 30 30
5/5/02 1:30 AM 51.8 51.8 51.8 52.4 51.1 100 51.8 0 0 --- 0 30.098 85.9 30 30
5/5/02 2:00 AM 52.2 52.2 52.2 52.5 51.9 100 52.2 0 0 --- 0 30.09 87 30 30
5/5/02 2:30 AM 51.9 51.9 51.9 52.1 51.4 100 51.9 0 0 --- 0 30.087 86.1 29 30
5/5/02 3:00 AM 51.2 51.2 51.2 51.4 51 100 51.2 0 0 --- 0 30.095 85.6 29 30
5/5/02 3:30 AM 51.2 51.2 51.2 51.5 50.9 100 51.2 0 0 --- 0 30.094 86 30 30
5/5/02 4:00 AM 50.6 50.6 50.6 51.3 49.9 100 50.6 0 0 --- 0 30.086 87.6 30 30
5/5/02 4:30 AM 49.1 49.1 49.1 50.1 48.6 100 49.1 0 0 --- 0 30.088 87.4 30 30
5/5/02 5:00 AM 47.9 47.9 47.9 48.6 47.1 100 47.9 0 0 --- 0 30.095 86.1 30 30
5/5/02 5:30 AM 46.8 46.8 46.8 47.4 46.1 100 46.8 0 0 --- 0 30.1 86.3 29 30
5/5/02 6:00 AM 45.5 45.5 45.5 46.1 44.8 100 45.5 0 0 --- 0 30.108 86.1 30 30
5/5/02 6:30 AM 45.1 45.1 45.1 45.5 44.5 100 45.1 0 0 --- 0 30.118 87 30 30
5/5/02 7:00 AM 46.3 46.3 46.3 47.3 45.4 100 46.3 0 0 --- 0 30.125 86.4 30 30
5/5/02 7:30 AM 49.7 49.7 49.7 51.6 47.3 100 49.7 0 0 --- 0 30.131 85.7 31 30
5/5/02 8:00 AM 52.5 52.5 52.5 53.8 51.6 100 52.5 0 0 --- 0 30.138 85.6 31 30
5/5/02 8:30 AM 54.6 54.6 54.6 55.6 53.8 100 54.6 0 0 --- 0 30.136 85.6 30 30
5/5/02 9:00 AM 57 57 57 58.3 55.6 100 57 0 0 --- 0 30.139 85.9 32 30
5/5/02 9:30 AM 59 59 59 60.3 58.3 100 59 0 0 --- 0 30.134 86.6 32 30
5/5/02 10:00 AM 62.5 62.5 62.5 64 60.3 100 62.5 0 0 --- 0 30.139 85.6 32 30
5/5/02 10:30 AM 64.9 64.9 64.9 65.8 63.6 100 64.9 0 1 --- 0 30.132 85.9 32 30
5/5/02 11:00 AM 66.6 66.6 66.6 67.8 65.2 100 66.6 0 0 --- 0 30.131 85.8 32 30
5/5/02 11:30 AM 72 68.7 68.7 70.2 67.3 100 68.7 0 4 SSE 0 30.133 85.6 32 30
5/5/02 12:00 PM 74 69.8 69.8 71.4 68.4 100 69.8 0 0 --- 0 30.126 85.9 32 30
5/5/02 12:30 PM 76 71.5 71.5 72.9 70.4 100 71.5 0 1 SSE 0 30.116 85.8 32 30
5/5/02 1:00 PM 77 72.7 72.7 73.9 71.1 100 72.7 0 3 SSE 0 30.111 86.6 32 30
5/5/02 1:30 PM 78 74.1 74.1 76.4 72.2 100 74.1 0 3 WNW 0 30.106 87.7 31 30
5/5/02 2:00 PM 78 74.4 74.4 76.2 72.8 100 74.4 0 4 NW 0 30.1 88.2 31 30
5/5/02 2:30 PM 78 74.2 74.2 76 71.8 100 74.2 0 0 --- 0 30.093 87.4 31 30
5/5/02 3:00 PM 79 75 75 76.1 73.5 100 75 0 0 --- 0 30.092 87.4 30 30
5/5/02 3:30 PM 79 74.7 74.7 75.4 73.6 100 74.7 0 1 --- 0 30.083 87.1 30 30
5/5/02 4:00 PM 79 74.7 74.7 75.5 73.6 100 74.7 0 0 --- 0 30.076 87.4 31 30
5/5/02 4:30 PM 79 74.6 74.6 76.3 73.3 100 74.6 0 3 NNW 0 30.074 87.5 32 30
5/5/02 5:00 PM 78 73.6 73.6 75.1 72.4 100 73.6 0 4 NNW 0 30.075 87.5 33 30
5/5/02 5:30 PM 75 71.2 71.2 72.4 70.6 100 71.2 0 0 --- 0 30.07 87.9 33 30
5/5/02 6:00 PM 74 70 70 70.9 69.5 100 70 0 0 --- 0 30.068 88.2 33 30
5/5/02 6:30 PM 74 69.8 69.8 71.2 69.2 100 69.8 0 0 --- 0 30.071 89 33 30
5/5/02 7:00 PM 74 70 70 72 67.4 100 70 0 0 --- 0 30.075 88.3 33 30
5/5/02 7:30 PM 72 69 69 71 67.4 100 69 0 0 --- 0 30.082 88.6 33 30
5/5/02 8:00 PM 67.2 67.2 67.2 71.1 63.7 100 67.2 0 0 --- 0 30.096 88.4 33 30
5/5/02 8:30 PM 62.8 62.8 62.8 63.7 62.1 100 62.8 0 3 NNW 0 30.111 88.2 33 30
5/5/02 9:00 PM 61.5 61.5 61.5 62.2 60.7 100 61.5 0 0 --- 0 30.12 88.6 33 30
5/5/02 9:30 PM 60.3 60.3 60.3 60.6 59.6 100 60.3 0 0 --- 0 30.132 88.2 32 30
5/5/02 10:00 PM 59 59 59 59.8 58.3 100 59 0 0 --- 0 30.14 88 33 30
5/5/02 10:30 PM 57.9 57.9 57.9 58.3 57.3 100 57.9 0 0 --- 0 30.145 88.3 33 30
5/5/02 11:00 PM 56.5 56.5 56.5 57.3 55.8 100 56.5 0 0 --- 0 30.148 88.2 33 30
5/5/02 11:30 PM 55.4 55.4 55.4 55.9 54.9 100 55.4 0 0 --- 0 30.151 87.8 33 30
5/6/02 12:00 AM 54.1 54.1 54.1 54.9 53.2 100 54.1 0 0 --- 0 30.149 87.5 33 30
5/6/02 12:30 AM 53.1 53.1 53.1 53.5 52.8 100 53.1 0 0 --- 0 30.154 87.2 33 30
5/6/02 1:00 AM 52.5 52.5 52.5 53.2 51.8 100 52.5 0 0 --- 0 30.155 87.6 33 30
5/6/02 1:30 AM 51.6 51.6 51.6 52 51.1 100 51.6 0 0 --- 0 30.152 87.6 33 30
5/6/02 2:00 AM 51.1 51.1 51.1 51.4 50.9 100 51.1 0 0 --- 0 30.154 87.4 33 30
5/6/02 2:30 AM 50.8 50.8 50.8 51.3 50.5 100 50.8 0 0 --- 0 30.148 87.7 33 30
5/6/02 3:00 AM 50.3 50.3 50.3 50.7 49.9 100 50.3 0 0 --- 0 30.147 87.5 33 30
5/6/02 3:30 AM 49.7 49.7 49.7 50.2 49.5 100 49.7 0 0 --- 0 30.152 86.9 33 30
5/6/02 4:00 AM 49.4 49.4 49.4 49.9 48.8 100 49.4 0 0 --- 0 30.154 87.7 33 30
5/6/02 4:30 AM 48.9 48.9 48.9 49.1 48.7 100 48.9 0 0 --- 0 30.16 86.7 33 30
5/6/02 5:00 AM 48.9 48.9 48.9 49.2 48.3 100 48.9 0 0 --- 0 30.171 86.4 33 30
5/6/02 5:30 AM 48 48 48 48.5 47.6 100 48 0 0 --- 0 30.169 86.6 33 30
5/6/02 6:00 AM 47.9 47.9 47.9 48.3 47.6 100 47.9 0 0 --- 0 30.168 86.4 33 30
5/6/02 6:30 AM 48.3 48.3 48.3 49 47.8 100 48.3 0 0 --- 0 30.153 86.8 33 30
5/6/02 7:00 AM 49.6 49.6 49.6 50.4 48.9 100 49.6 0 0 --- 0 30.161 86 33 30
5/6/02 7:30 AM 52.1 52.1 52.1 53 50.3 100 52.1 0 0 --- 0 30.173 85.9 34 30
5/6/02 8:00 AM 54 54 54 55 52.8 100 54 0 0 --- 0 30.171 86.1 33 30
5/6/02 8:30 AM 56.2 56.2 56.2 57.5 54.9 100 56.2 0 0 --- 0 30.173 85.9 33 30
5/6/02 9:00 AM 58.9 58.9 58.9 60.6 57.5 100 58.9 0 0 --- 0 30.176 85.6 33 30
5/6/02 9:30 AM 62.1 62.1 62.1 63.8 60.5 100 62.1 0 0 --- 0 30.167 85.6 33 30
5/6/02 10:00 AM 65.5 65.5 65.5 67 63.8 100 65.5 0 0 --- 0 30.16 86.2 34 30
5/6/02 10:30 AM 72 68.8 68.8 71 66.7 100 68.8 0 0 --- 0 30.161 85.8 33 30
5/6/02 11:00 AM 76 72 72 73.9 70.9 100 72 0 0 --- 0 30.153 86.5 33 30
5/6/02 11:30 AM 79 74.7 74.7 76 73.4 100 74.7 0 0 --- 0 30.14 87.2 34 30
5/6/02 12:00 PM 80 76.2 76.2 77 75.5 100 76.2 0 2 SE 0 30.134 87.5 34 30
5/6/02 12:30 PM 84 77.7 77.7 78.6 76.6 100 77.7 0 3 NE 0 30.119 87.3 33 30
5/6/02 1:00 PM 87 78.8 78.8 79.7 78.1 100 78.8 0 4 N 0 30.106 87 34 30
5/6/02 1:30 PM 90 80.1 80.1 80.8 79.5 100 80.1 0 4 N 0 30.088 87.3 33 30
5/6/02 2:00 PM 90 79.5 79.5 80.5 78.2 100 79.5 0 5 N 0 30.074 87.6 33 30
5/6/02 2:30 PM 90 79.7 79.7 80.6 78.4 100 79.7 0 4 N 0 30.055 88.1 33 30
5/6/02 3:00 PM 87 79.2 79.2 80.4 77.3 100 79.2 0 0 --- 0 30.043 88.4 33 30
5/6/02 3:30 PM 84 77.6 77.6 78.7 76.8 100 77.6 0 0 --- 0 30.039 88.4 33 30
5/6/02 4:00 PM 82 76.7 76.7 77.2 76.1 100 76.7 0 0 --- 0 30.038 88.8 33 30
5/6/02 4:30 PM 80 76.3 76.3 76.5 76.1 100 76.3 0 0 --- 0 30.023 88.8 33 30
5/6/02 5:00 PM 79 75.2 75.2 76.2 74.4 100 75.2 0 2 NE 0 30.022 89 34 30
5/6/02 5:30 PM 78 74.2 74.2 74.7 73.2 100 74.2 0 1 --- 0 30.015 89.2 35 30
5/6/02 6:00 PM 76 72.4 72.4 73.1 71.7 100 72.4 0 0 --- 0 30.012 88.9 35 30
5/6/02 6:30 PM 75 70.9 70.9 71.8 69.8 100 70.9 0 0 --- 0 30.006 89 35 30
5/6/02 7:00 PM 72 69.4 69.4 70 68.5 100 69.4 0 0 --- 0 29.996 89 35 30
5/6/02 7:30 PM 67.8 67.8 67.8 68.5 67.1 100 67.8 0 0 --- 0 30 88.9 36 30
5/6/02 8:00 PM 66.4 66.4 66.4 67.1 65.7 100 66.4 0 4 ENE 0 30.007 89.2 37 30
5/6/02 8:30 PM 65.2 65.2 65.2 65.7 64.7 100 65.2 0 4 SW 0 30.002 89.3 37 30
5/6/02 9:00 PM 64.3 64.3 64.3 65.2 63.9 100 64.3 0 0 --- 0 30.008 89.3 38 30
5/6/02 9:30 PM 64.1 64.1 64.1 66 62.8 100 64.1 0 0 --- 0 30.009 89.4 36 30
5/6/02 10:00 PM 62.1 62.1 62.1 62.8 61.8 100 62.1 0 0 --- 0 29.992 89.3 36 30
5/7/02 4:30 AM 56.9 56.9 56.9 57.3 56.4 20 16.3 0 0 --- 0 0.713 86.3 3 30
5/7/02 5:00 AM 56.8 56.8 56.8 57.1 56.4 100 56.8 0 0 --- 0 29.881 86.3 34 30
5/7/02 5:30 AM 57 57 57 57.2 56.6 100 57 0 0 --- 0 29.871 86 35 30
5/7/02 6:00 AM 57.3 57.3 57.3 57.5 57.1 100 57.3 0 0 --- 0 29.869 85.7 35 30
5/7/02 6:30 AM 57.5 57.5 57.5 58 57.1 100 57.5 0 0 --- 0 29.868 85.5 36 30
5/7/02 7:00 AM 58.3 58.3 58.3 58.7 57.9 100 58.3 0 0 --- 0 29.877 85.3 36 30
5/7/02 7:30 AM 59.5 59.5 59.5 60.7 58.6 100 59.5 0 0 --- 0 29.878 85.2 36 30
5/7/02 8:00 AM 61.2 61.2 61.2 61.8 60.7 100 61.2 0 0 --- 0 29.872 85.1 35 30
5/7/02 8:30 AM 62.8 62.8 62.8 64.1 61.5 100 62.8 0 0 --- 0 29.852 85.1 34 30
5/7/02 9:00 AM 64.8 64.8 64.8 66.1 63.9 100 64.8 0 0 --- 0 29.835 85.8 34 30
5/7/02 9:30 AM 67.2 67.2 67.2 68.3 66.2 100 67.2 0 0 --- 0 29.841 86.5 34 30
5/7/02 10:00 AM 72 69.2 69.2 70.4 68.1 100 69.2 0 0 --- 0 29.838 87.4 36 30
5/7/02 10:30 AM 75 71.2 71.2 72.2 69.9 100 71.2 0 0 --- 0 29.837 86.9 37 30
5/7/02 11:00 AM 77 73.2 73.2 74.7 72.1 100 73.2 0 0 --- 0 29.826 87.2 37 30
5/7/02 11:30 AM 80 75.5 75.5 76.7 74.2 100 75.5 0 0 --- 0 29.816 87.1 36 30
5/7/02 12:00 PM 82 77.1 77.1 78.5 76 100 77.1 0 0 --- 0 29.811 87.5 36 30
5/7/02 12:30 PM 84 78.4 78.4 80.2 77.1 100 78.4 0 0 --- 0 29.808 87.7 36 30
5/7/02 1:00 PM 87 79.4 79.4 81.2 77.2 100 79.4 0 4 NNE 0 29.799 86.9 36 30
5/7/02 1:30 PM 90 79.7 79.7 82.2 77.6 100 79.7 0 0 --- 0 29.797 87.1 36 30
5/7/02 2:00 PM 96 82.2 82.2 83.4 81 100 82.2 0 3 S 0 29.784 88.1 36 30
5/7/02 2:30 PM 93 81 81 82.4 79.8 100 81 0 2 S 0 29.784 88.1 36 30
5/7/02 3:00 PM 90 80.4 80.4 81.1 79.6 100 80.4 0 2 W 0 29.768 88.2 36 30
5/7/02 3:30 PM 93 80.8 80.8 83.3 79.6 100 80.8 0 0 --- 0 29.758 88.4 36 30
5/7/02 4:00 PM 93 81 81 83 79.8 100 81 0 4 N 0 29.744 88.4 36 30
5/7/02 4:30 PM 90 80.4 80.4 81.1 79.6 100 80.4 0 3 WNW 0 29.737 88.6 36 30
5/7/02 5:00 PM 90 79.8 79.8 80.4 79.2 100 79.8 0 2 SSE 0 29.742 88.7 37 30
5/7/02 5:30 PM 87 79.3 79.3 79.8 79 100 79.3 0 0 --- 0 29.743 89.1 38 30
5/7/02 6:00 PM 87 78.6 78.6 79.1 78.2 100 78.6 0 0 --- 0 29.737 89.4 39 30
5/7/02 6:30 PM 84 77.7 77.7 78.5 77.1 100 77.7 0 0 --- 0 29.739 89.4 39 30
5/7/02 7:00 PM 82 76.7 76.7 77.4 75.8 100 76.7 0 0 --- 0 29.737 89.2 38 30
5/7/02 7:30 PM 79 75.4 75.4 75.9 74.9 100 75.4 0 0 --- 0 29.748 89.6 38 30
5/7/02 8:00 PM 78 74.4 74.4 75.1 73.6 100 74.4 0 0 --- 0 29.758 90 38 30
5/7/02 8:30 PM 76 72.3 72.3 73.6 71.7 100 72.3 0 0 --- 0 29.773 89.8 38 30
5/7/02 9:00 PM 75 71.2 71.2 71.8 70.3 100 71.2 0 0 --- 0 29.783 89.8 38 30
5/7/02 9:30 PM 74 70.1 70.1 70.4 69.6 100 70.1 0 0 --- 0 29.798 90 38 30
5/7/02 10:00 PM 72 69 69 69.9 68 100 69 0 0 --- 0 29.795 89.9 39 30
5/7/02 10:30 PM 70 68.4 68.4 72 67.2 100 68.4 0 0 --- 0 29.801 89.5 39 30
5/7/02 11:00 PM 67.7 67.7 67.7 72.2 65.8 100 67.7 0 0 --- 0 29.807 88.5 39 30
5/7/02 11:30 PM 65.5 65.5 65.5 65.9 65 100 65.5 0 0 --- 0 29.813 88.8 40 30
5/8/02 12:00 AM 65 65 65 65.4 64.6 100 65 0 0 --- 0 29.82 88.7 40 30
5/8/02 12:30 AM 64.2 64.2 64.2 64.6 63.7 100 64.2 0 0 --- 0 29.822 89.1 40 30
5/8/02 1:00 AM 63.6 63.6 63.6 64.3 62.9 100 63.6 0 0 --- 0 29.835 89.2 39 30
5/8/02 1:30 AM -- 64.7 64.7 66.4 63.1 -- -- 0 0 --- 0 29.839 89.7 39 30
5/8/02 2:00 AM -- 67.1 67.1 68 65.7 -- -- 0 0 --- 0 29.834 89.8 39 30
5/8/02 2:30 AM -- 65.8 65.8 66.6 64.9 -- -- 0 0 --- 0 29.838 89.3 39 30
5/8/02 3:00 AM -- 65.9 65.9 66.5 64.9 -- -- 0 0 --- 0 29.837 89.3 39 30
5/8/02 3:30 AM -- 65.8 65.8 66.2 65.5 -- -- 0 0 --- 0 29.842 89.2 40 30
5/8/02 4:00 AM -- 65.6 65.6 65.9 65.3 -- -- 0 3 SSE 0 29.847 88.9 40 30
5/8/02 4:30 AM -- 64.8 64.8 65.4 64.3 -- -- 0 0 --- 0 29.866 88.6 39 30
5/8/02 5:00 AM -- 63.6 63.6 64.3 63 -- -- 0 3 SSE 0 29.88 88.4 39 30
5/8/02 5:30 AM -- 62.5 62.5 63 61.9 -- -- 0 6 SE 0 29.9 88.1 39 30
5/8/02 6:00 AM -- 61.5 61.5 61.9 61 -- -- 0 4 SE 0 29.913 87.6 39 30
5/8/02 6:30 AM -- 60.7 60.7 61.2 60.3 -- -- 0 3 SE 0 29.928 87.2 39 30
5/8/02 7:00 AM -- 60.5 60.5 60.8 60.2 -- -- 0 0 --- 0 29.959 86.7 39 30
5/8/02 7:30 AM -- 61.3 61.3 61.9 60.7 -- -- 0 0 --- 0 29.972 86.5 39 30
5/8/02 8:00 AM -- 61.9 61.9 62.4 61.6 -- -- 0 5 SE 0 29.973 86.5 39 30
5/8/02 8:30 AM -- 63.1 63.1 64.1 62.4 -- -- 0 3 SE 0 29.997 86.5 38 30
5/8/02 9:00 AM -- 64.5 64.5 65.4 63.8 -- -- 0 2 SE 0 30.007 87 38 30
5/8/02 9:30 AM -- 66 66 67.3 65.4 -- -- 0 0 --- 0 30.02 87.3 37 30
5/8/02 10:00 AM -- 67.7 67.7 69.1 66.8 -- -- 0 5 SE 0 30.011 87.9 37 30
5/8/02 10:30 AM -- 69.5 69.5 70.4 68.5 -- -- 0 7 SE 0 30.02 87.6 37 30
5/8/02 11:00 AM -- 71.1 71.1 72 70.4 -- -- 0 0 --- 0 30.025 87.8 37 30
5/8/02 11:30 AM -- 72.5 72.5 73.3 71.5 -- -- 0 0 --- 0 30.02 88.5 36 30
5/8/02 12:00 PM -- 73.9 73.9 74.9 72.5 -- -- 0 3 SE 0 30.012 89 36 30
5/8/02 12:30 PM -- 75.5 75.5 76.3 74.7 -- -- 0 0 --- 0 30.007 89.1 36 30
5/8/02 1:00 PM -- 76 76 76.8 75 -- -- 0 0 --- 0 30.004 89.2 36 30
5/8/02 1:30 PM -- 76.3 76.3 77.2 75.8 -- -- 0 4 SE 0 29.998 89.1 36 30
5/8/02 2:00 PM -- 76.8 76.8 77.9 75.3 -- -- 0 3 SE 0 29.999 88.3 36 30
5/8/02 2:30 PM -- 76.7 76.7 77.9 75.2 -- -- 0 6 NNE 0 30.001 88.4 36 30
5/8/02 3:00 PM -- 76.1 76.1 77.9 75.5 -- -- 0 3 SW 0 29.997 88.1 36 30
5/8/02 3:30 PM -- 76 76 76.7 75.2 -- -- 0 0 --- 0 29.991 88.2 38 30
5/8/02 4:00 PM -- 73.4 73.4 76.3 71 -- -- 0 4 NNE 0 29.995 90.1 36 30
5/8/02 4:30 PM -- 69.6 69.6 71.6 68 -- -- 0 1 ENE 0 30.006 93.2 36 30
5/8/02 5:00 PM -- 66.4 66.4 68.4 65 -- -- 0 1 --- 0 30.024 93.8 35 30
5/8/02 5:30 PM -- 64 64 65.3 62.8 -- -- 0 2 NE 0 30.025 94.1 36 30
5/8/02 6:00 PM -- 62 62 63.1 60.9 -- -- 0 2 NE 0 30.027 94.1 36 30
5/8/02 6:30 PM -- 60.3 60.3 61.3 59.7 -- -- 0 0 --- 0 30.038 94.3 35 30
5/8/02 7:00 PM -- 59.4 59.4 60.1 58.8 -- -- 0 0 --- 0 30.049 94.1 36 30
5/8/02 7:30 PM -- 58.4 58.4 58.9 57.8 -- -- 0 0 --- 0 30.045 94.1 35 30
5/8/02 8:00 PM -- 57.6 57.6 58 57.3 -- -- 0 0 --- 0 30.042 94.1 35 30
5/8/02 8:30 PM -- 56.9 56.9 57.3 56.5 -- -- 0 0 --- 0 30.05 93.7 35 30
5/8/02 9:00 PM -- 56.4 56.4 56.7 56.1 -- -- 0 0 --- 0 30.059 93.5 35 30
5/8/02 9:30 PM -- 56.3 56.3 56.6 56.1 -- -- 0 0 --- 0 30.057 93.2 34 30
5/8/02 10:00 PM -- 56 56 56.5 55.7 -- -- 0 0 --- 0 30.045 93.3 34 30
5/8/02 10:30 PM -- 55.8 55.8 56.2 55.5 -- -- 0 0 --- 0 30.053 92.9 34 30
5/8/02 11:00 PM -- 55.6 55.6 55.9 55.4 -- -- 0 0 --- 0 30.039 92.9 33 30
5/8/02 11:30 PM -- 55.4 55.4 55.8 55.1 -- -- 0 0 --- 0 30.054 93 34 30
5/9/02 12:00 AM -- 55.2 55.2 55.6 54.9 -- -- 0 0 --- 0 30.055 93.1 34 30
5/9/02 12:30 AM -- 55.4 55.4 55.9 54.8 -- -- 0 0 --- 0 30.052 92.5 34 30
5/9/02 1:00 AM -- 55.2 55.2 55.7 54.9 -- -- 0 0 --- 0 30.068 92.1 34 30
5/9/02 1:30 AM -- 54.8 54.8 55.5 54.4 -- -- 0 0 --- 0 30.055 91.6 34 30
5/9/02 2:00 AM -- 54.3 54.3 54.7 54.1 -- -- 0 0 --- 0 30.038 91 34 30
5/9/02 2:30 AM -- 54.1 54.1 54.2 54 -- -- 0 0 --- 0 30.018 90.7 34 30
5/9/02 3:00 AM -- 54.1 54.1 54.3 53.9 -- -- 0 0 --- 0 30.007 90.7 34 30
5/9/02 3:30 AM -- 54.1 54.1 54.4 53.3 -- -- 0 1 NE 0 30 90.4 34 30
5/9/02 4:00 AM -- 53 53 53.4 52.6 -- -- 0 0 --- 0 30.001 89.5 35 30
5/9/02 4:30 AM -- 53 53 53.3 52.6 -- -- 0 0 --- 0 29.994 89.3 35 30
5/9/02 5:00 AM -- 52.5 52.5 52.8 52.1 -- -- 0 3 NE 0 30.021 89.4 34 30
5/9/02 5:30 AM -- 52.2 52.2 52.7 51.7 -- -- 0 0 --- 0 30.027 90.1 34 30
5/9/02 6:00 AM -- 52.2 52.2 53.2 51.7 -- -- 0 0 --- 0 30.004 89.8 34 30
5/9/02 6:30 AM -- 52 52 52.5 51.6 -- -- 0 0 --- 0 30.012 90 34 30
5/9/02 7:00 AM -- 52.3 52.3 52.6 52 -- -- 0 0 --- 0 30.03 89.3 35 30
5/9/02 7:30 AM -- 52.2 52.2 52.5 51.5 -- -- 0 0 --- 0 30.03 89.5 35 30
5/9/02 8:00 AM -- 51.6 51.6 52.1 51.2 -- -- 0 1 --- 0 30.048 89 35 30
5/9/02 8:30 AM -- 51.3 51.3 52.2 50.8 -- -- 0 0 --- 0 30.025 90.3 34 30
5/9/02 9:00 AM -- 51.1 51.1 51.6 50.7 -- -- 0 1 --- 0 30.039 90.8 34 30
5/9/02 9:30 AM -- 50.9 50.9 51.8 50.4 -- -- 0 1 --- 0 30.023 90.2 34 30
5/9/02 10:00 AM -- 50.9 50.9 51.2 50.6 -- -- 0 1 --- 0 30.008 90.1 33 30
5/9/02 10:30 AM -- 51.3 51.3 51.8 50.7 -- -- 0 0 --- 0 30.004 90.4 33 30
5/9/02 11:00 AM -- 52.1 52.1 52.8 51.6 -- -- 0 0 --- 0 29.991 90.9 33 30
5/9/02 11:30 AM -- 51.6 51.6 52.2 51.2 -- -- 0 0 --- 0 29.984 90.6 33 30
5/9/02 12:00 PM -- 51.6 51.6 52 51.3 -- -- 0 0 --- 0 29.978 90.3 34 30
5/9/02 12:30 PM -- 52 52 52.3 51.7 -- -- 0 0 --- 0 29.963 90.3 35 30
5/9/02 1:00 PM -- 52.4 52.4 52.9 51.9 -- -- 0 0 --- 0.25 29.952 90.2 34 30
5/9/02 1:30 PM -- 53 53 53.5 52.4 -- -- 0 0 --- 0 29.946 90.1 34 30
5/9/02 2:00 PM -- 53.3 53.3 53.8 53 -- -- 0 0 --- 0 29.938 89.7 34 30
5/9/02 2:30 PM -- 53.5 53.5 53.8 53.3 -- -- 0 0 --- 0 29.925 89.8 33 30
5/9/02 3:00 PM -- 53.7 53.7 54.4 53.2 -- -- 0 0 --- 0 29.905 90.2 34 30
5/9/02 3:30 PM -- 54.3 54.3 54.8 53.6 -- -- 0 0 --- 0 29.887 90.4 33 30
5/9/02 4:00 PM -- 53.8 53.8 54.4 53.6 -- -- 0 2 E 0 29.879 89.6 36 30
5/9/02 4:30 PM -- 54.3 54.3 54.6 53.9 -- -- 0 0 --- 0 29.869 90.2 35 30
5/9/02 5:00 PM -- 54.2 54.2 54.6 53.6 -- -- 0 0 --- 0 29.887 90.6 35 30
5/9/02 5:30 PM -- 53.9 53.9 54.2 53.7 -- -- 0 0 --- 0 29.875 90.6 35 30
5/9/02 6:00 PM -- 53.6 53.6 53.9 53.2 -- -- 0 0 --- 0 29.867 90.7 35 30
5/9/02 6:30 PM -- 53.4 53.4 53.9 53 -- -- 0 0 --- 0 29.835 89.2 35 30
5/9/02 7:00 PM -- 53.2 53.2 53.5 52.9 -- -- 0 0 --- 0 29.79 89.7 34 30
5/9/02 7:30 PM -- 53.2 53.2 53.4 53 -- -- 0 0 --- 0 29.819 89.5 34 30
5/9/02 8:00 PM -- 53.3 53.3 53.5 53.1 -- -- 0 0 --- 0 29.818 89.3 34 30
5/9/02 8:30 PM -- 53.3 53.3 53.5 53.1 -- -- 0 0 --- 0 29.824 88.9 35 30
5/9/02 9:00 PM -- 53.4 53.4 53.5 53.2 -- -- 0 0 --- 0 29.823 88.2 36 30
5/9/02 9:30 PM -- 53.6 53.6 53.9 53.3 -- -- 0 0 --- 0 29.821 88.7 38 30
5/9/02 10:00 PM -- 53.9 53.9 54.2 53.6 -- -- 0 0 --- 0 29.813 90.2 36 30
5/9/02 10:30 PM -- 54.3 54.3 54.7 53.9 -- -- 0 0 --- 0 29.833 91.4 35 30
5/9/02 11:00 PM -- 54.4 54.4 54.7 54.2 -- -- 0 0 --- 0 29.828 92.2 35 30
5/9/02 11:30 PM -- 54.4 54.4 54.5 54.3 -- -- 0 0 --- 0 29.821 91.6 35 30
5/10/02 12:00 AM -- 54.6 54.6 54.9 54.4 -- -- 0 0 --- 0 29.812 91.8 35 30
5/10/02 12:30 AM -- 54.8 54.8 55.1 54.6 -- -- 0 0 --- 0 29.812 91.1 36 30
5/10/02 1:00 AM -- 55 55 55.3 54.9 -- -- 0 0 --- 0 29.8 90.8 36 30
5/10/02 1:30 AM -- 55 55 55.2 54.7 -- -- 0 0 --- 0 29.814 91.3 36 30
5/10/02 2:00 AM -- 54.9 54.9 55.1 54.7 -- -- 0 0 --- 0 29.806 91.2 36 30
5/10/02 2:30 AM -- 54.9 54.9 55.1 54.7 -- -- 0 0 --- 0 29.808 91 36 30
5/10/02 3:00 AM -- 54.9 54.9 55.1 54.7 -- -- 0 0 --- 0 29.818 90.7 36 30
5/10/02 3:30 AM -- 55 55 55.2 54.8 -- -- 0 0 --- 0 29.815 90.1 37 30
5/10/02 4:00 AM -- 55.1 55.1 55.3 54.9 -- -- 0 0 --- 0 29.817 90.2 36 30
5/10/02 4:30 AM -- 55.2 55.2 55.5 55 -- -- 0 0 --- 0 29.824 90.6 36 30
5/10/02 5:00 AM -- 55.3 55.3 55.4 55.2 -- -- 0 0 --- 0 29.835 90.1 36 30
5/10/02 5:30 AM -- 55.1 55.1 55.5 54.8 -- -- 0 0 --- 0 29.837 89.6 36 30
5/10/02 6:00 AM -- 55 55 55.3 54.6 -- -- 0 0 --- 0 29.843 89.8 36 30
5/10/02 6:30 AM -- 55 55 55.2 54.8 -- -- 0 0 --- 0 29.873 89.2 38 30
5/10/02 7:00 AM -- 55.5 55.5 56.2 55 -- -- 0 0 --- 0 29.894 89.6 39 30
5/10/02 7:30 AM -- 57.4 57.4 58.7 56.2 -- -- 0 0 --- 0 29.912 90.1 38 30
5/10/02 8:00 AM -- 59.3 59.3 60 58.6 -- -- 0 0 --- 0 29.921 90.2 37 30
5/10/02 1:30 PM -- 76.5 76.5 77.8 75.7 -- -- 0 5 SSE 0 29.919 91.4 36 30
5/10/02 2:00 PM -- 77.3 77.3 78.3 75.9 -- -- 0 8 ESE 0 29.922 91.1 35 30
5/10/02 2:30 PM -- 77.2 77.2 78.1 75.9 -- -- 1 7 SSE 0 29.911 90.7 35 30
5/10/02 3:00 PM -- 77.1 77.1 78 76.2 -- -- 1 8 NE 0 29.911 91.3 35 30
5/10/02 3:30 PM -- 77 77 78 75.4 -- -- 1 6 SE 0 29.917 90.7 34 30
5/10/02 4:00 PM -- 77 77 77.9 76.4 -- -- 0 6 ENE 0 29.916 90.6 36 30
5/10/02 4:30 PM -- 75.7 75.7 76.6 75.3 -- -- 0 7 ESE 0 29.909 81.7 40 30
5/10/02 5:00 PM -- 74.9 74.9 75.8 74 -- -- 0 9 NNE 0 29.906 82.5 40 30
5/10/02 5:30 PM -- 74.2 74.2 74.5 73.9 -- -- 0 5 ESE 0 29.908 91.7 36 30
5/10/02 6:00 PM -- 73.3 73.3 74 72.9 -- -- 0 6 SSE 0 29.919 94.1 35 30
5/10/02 6:30 PM -- 72.5 72.5 73 72.1 -- -- 1 7 ENE 0 29.923 87 39 30
5/10/02 7:00 PM -- 71.5 71.5 72.1 71.1 -- -- 0 3 ENE 0 29.938 78.2 44 30
5/10/02 7:30 PM -- 70.5 70.5 71 69.9 -- -- 0 6 N 0 29.942 77.4 45 30
5/10/02 8:00 PM -- 69.2 69.2 70.2 68.5 -- -- 0 3 SE 0 29.962 77.1 45 30
5/10/02 8:30 PM -- 67.9 67.9 68.6 67.3 -- -- 0 4 SSE 0 29.981 76.8 45 30
5/10/02 9:00 PM -- 66.6 66.6 67.7 65.7 -- -- 0 0 --- 0 30.002 76.6 44 30
5/10/02 9:30 PM -- 65.7 65.7 66.1 64.9 -- -- 0 4 NNE 0 30.015 76.4 44 30
5/10/02 10:00 PM -- 64.4 64.4 65.6 63.4 -- -- 0 0 --- 0 30.028 76.3 44 30
5/10/02 10:30 PM -- 63 63 63.5 62.4 -- -- 0 0 --- 0 30.049 76.4 44 30
5/10/02 11:00 PM -- 62.2 62.2 62.4 61.9 -- -- 0 0 --- 0 30.071 76.1 44 30
5/10/02 11:30 PM -- 61.5 61.5 62 61.1 -- -- 0 5 SSE 0 30.105 75.9 44 30
5/11/02 12:00 AM -- 61 61 61.6 60.3 -- -- 0 6 SSE 0 30.126 75.7 43 30
5/11/02 12:30 AM -- 59.7 59.7 60.6 59.2 -- -- 0 2 SSE 0 30.142 75.5 43 30
5/11/02 1:00 AM -- 59 59 59.5 58.4 -- -- 0 3 SSE 0 30.155 75.1 44 30
5/11/02 1:30 AM -- 57.5 57.5 58.4 56.1 -- -- 0 0 --- 0 30.17 74.8 43 30
5/11/02 2:00 AM -- 55.2 55.2 56.2 54.5 -- -- 0 0 --- 0 30.177 74.4 43 30
5/11/02 2:30 AM -- 53.4 53.4 54.5 52.4 -- -- 0 0 --- 0 30.182 74.2 43 30
5/11/02 3:00 AM 51.6 51.6 51.6 52.4 51 100 51.6 0 0 --- 0 30.192 73.8 43 30
5/11/02 3:30 AM -- 51.3 51.3 53.1 50.4 -- -- 0 0 --- 0 30.207 73.5 42 30
5/11/02 4:00 AM -- 53.1 53.1 53.8 52.5 -- -- 0 0 --- 0 30.22 73.2 42 30
5/11/02 4:30 AM -- 51.9 51.9 52.5 51.2 -- -- 0 0 --- 0 30.232 72.9 42 30
5/11/02 5:00 AM -- 51.4 51.4 51.9 51 -- -- 0 0 --- 0 30.242 72.6 42 30
5/11/02 5:30 AM 50.4 50.4 50.4 50.9 50 100 50.4 0 0 --- 0 30.258 73.5 41 30
5/11/02 6:00 AM -- 50.2 50.2 51.7 49.6 -- -- 0 5 SSE 0 30.277 73.9 41 30
5/11/02 6:30 AM -- 52.3 52.3 52.6 51.7 -- -- 0 4 SSE 0 30.294 73.9 40 30
5/11/02 7:00 AM -- 52.6 52.6 53 52.2 -- -- 0 0 --- 0 30.299 74.2 42 30
5/11/02 7:30 AM 53.5 53.5 53.5 54.5 52.7 100 53.5 0 0 --- 0 30.314 75.4 41 30
5/11/02 8:00 AM 53.9 53.9 53.9 54.3 53.5 100 53.9 0 4 SSE 0 30.318 75.8 40 30
5/11/02 8:30 AM 54.6 54.6 54.6 55.2 54 100 54.6 0 4 SSE 0 30.312 75.6 40 30
5/11/02 9:00 AM -- 56.2 56.2 56.8 55.2 -- -- 0 5 SSE 0 30.305 75.2 39 30
5/11/02 9:30 AM 57.1 57.1 57.1 58.3 56.4 100 57.1 0 6 SSE 0 30.299 74.8 38 30
5/11/02 10:00 AM -- 58.7 58.7 59.9 57.9 -- -- 0 3 SSE 0 30.295 74.5 38 30
5/11/02 10:30 AM -- 60.7 60.7 61.8 59.5 -- -- 0 2 SSE 0 30.28 74.3 38 30
5/11/02 11:00 AM -- 62.4 62.4 63.9 60.8 -- -- 0 8 SSE 0 30.28 74.3 38 30
5/11/02 11:30 AM -- 65 65 66.4 63.3 -- -- 0 4 SSE 0 30.287 74.4 39 30
5/11/02 12:00 PM -- 67.2 67.2 69.1 66 -- -- 0 0 --- 0 30.274 74.3 39 30
5/11/02 12:30 PM -- 68.3 68.3 70.1 66.8 -- -- 0 4 SSE 0 30.269 74.4 39 30
5/11/02 1:00 PM -- 70 70 72 69.1 -- -- 0 4 SSE 0 30.263 74.4 39 30
5/11/02 1:30 PM -- 70.7 70.7 72 69.3 -- -- 0 5 SE 0 30.259 74.4 39 30
5/11/02 2:00 PM -- 72.2 72.2 73.8 70.4 -- -- 0 0 --- 0 30.251 74.3 39 30
5/11/02 2:30 PM -- 73 73 73.9 71.1 -- -- 0 2 E 0 30.251 74.6 39 30
5/11/02 3:00 PM -- 73.6 73.6 75.2 72.3 -- -- 0 5 SE 0 30.237 74.8 39 30
5/11/02 3:30 PM -- 73.6 73.6 74.6 72.6 -- -- 0 4 S 0 30.224 74.9 40 30
5/11/02 4:00 PM -- 73.6 73.6 74.3 72.7 -- -- 0 0 --- 0 30.224 75.3 40 30
5/11/02 4:30 PM -- 73.2 73.2 74 72.2 -- -- 0 4 NE 0 30.213 75.4 41 30
5/11/02 5:00 PM -- 72.1 72.1 73.2 71.2 -- -- 0 0 --- 0 30.211 75.4 41 30
5/11/02 5:30 PM -- 70.6 70.6 71.6 69.6 -- -- 0 0 --- 0 30.198 75.5 41 30
5/11/02 6:00 PM -- 69.3 69.3 69.7 68.8 -- -- 0 0 --- 0 30.206 75.5 41 30
5/11/02 6:30 PM -- 68.5 68.5 69 68.1 -- -- 0 0 --- 0 30.213 75.5 41 30
5/11/02 7:00 PM -- 69.6 69.6 71.4 68.3 -- -- 0 0 --- 0 30.209 75.1 41 30
5/11/02 7:30 PM -- 66.6 66.6 70.5 64.4 -- -- 0 0 --- 0 30.199 74.9 40 30
5/11/02 8:00 PM -- 67.5 67.5 69.8 65.8 -- -- 0 0 --- 0 30.212 74.8 41 30
5/11/02 8:30 PM -- 63.6 63.6 68.3 60.3 -- -- 0 0 --- 0 30.226 74.7 41 30
5/11/02 9:00 PM -- 59.6 59.6 60.6 58.8 -- -- 0 0 --- 0 30.225 74.5 42 30
5/11/02 9:30 PM -- 58.5 58.5 59.2 57.4 -- -- 0 0 --- 0 30.234 75.5 42 30
5/11/02 10:00 PM -- 60.6 60.6 64.2 57.7 -- -- 0 0 --- 0 30.224 76 42 30
5/11/02 10:30 PM -- 56.1 56.1 57.4 55.7 -- -- 0 0 --- 0 30.219 76.4 42 30
5/11/02 11:00 PM -- 55.9 55.9 56.5 55.7 -- -- 0 0 --- 0 30.215 76.1 41 30
5/11/02 11:30 PM -- 56.3 56.3 56.6 56 -- -- 0 0 --- 0 30.213 75.6 41 30
5/12/02 12:00 AM -- 56.6 56.6 56.8 56.1 -- -- 0 0 --- 0 30.209 75.7 41 30
5/12/02 12:30 AM -- 56.1 56.1 56.7 55.6 -- -- 0 0 --- 0 30.197 75.5 42 30
5/12/02 1:00 AM 56.1 56.1 56.1 56.7 55.7 100 56.1 0 0 --- 0 30.196 76.3 41 30
5/12/02 1:30 AM 56.4 56.4 56.4 56.7 56.1 100 56.4 0 0 --- 0 30.185 76.7 41 30
5/12/02 2:00 AM 56.6 56.6 56.6 57 56.2 100 56.6 0 0 --- 0 30.192 77.7 41 30
5/12/02 2:30 AM 56.3 56.3 56.3 56.6 56 100 56.3 0 0 --- 0 30.186 78.8 41 30
5/12/02 3:00 AM 56.1 56.1 56.1 56.6 55.8 100 56.1 0 0 --- 0 30.171 78.9 40 30
5/12/02 3:30 AM 56.3 56.3 56.3 56.6 56.1 100 56.3 0 0 --- 0 30.169 78.3 40 30
5/12/02 4:00 AM 56.5 56.5 56.5 56.8 56.2 100 56.5 0 0 --- 0 30.158 78.1 41 30
5/12/02 4:30 AM 56.7 56.7 56.7 57 56.4 100 56.7 0 0 --- 0 30.169 79 40 30
5/12/02 5:00 AM 56.6 56.6 56.6 56.9 56.2 100 56.6 0 0 --- 0 30.174 79.1 40 30
5/12/02 5:30 AM 56.2 56.2 56.2 56.5 55.6 100 56.2 0 0 --- 0 30.164 78.9 40 30
5/12/02 6:00 AM 56.4 56.4 56.4 56.5 56.3 100 56.4 0 0 --- 0 30.17 78.6 41 30
5/12/02 6:30 AM -- 56.2 56.2 56.5 55.6 -- -- 0 0 --- 0 30.18 78.3 41 30
5/12/02 7:00 AM -- 55.3 55.3 55.7 54.7 -- -- 0 0 --- 0 30.173 78.1 40 30
5/12/02 7:30 AM -- 55.4 55.4 55.8 54.9 -- -- 0 0 --- 0 30.176 77.2 43 30
5/12/02 8:00 AM -- 55.5 55.5 55.8 55.1 -- -- 0 0 --- 0 30.163 76.4 44 30
5/12/02 8:30 AM -- 55.2 55.2 55.6 54.8 -- -- 0 0 --- 0 30.155 76.4 46 30
5/12/02 9:00 AM 54.8 54.8 54.8 55.3 54.2 100 54.8 0 0 --- 0 30.143 76.6 45 30
5/12/02 9:30 AM -- 55.2 55.2 55.7 54.5 -- -- 0 0 --- 0 30.13 76.5 45 30
5/12/02 10:00 AM -- 55.5 55.5 56.1 55 -- -- 0 1 --- 0 30.103 76.3 45 30
5/12/02 10:30 AM -- 55.8 55.8 56.2 55.4 -- -- 0 0 --- 0 30.089 75.9 45 30
5/12/02 11:00 AM -- 56.5 56.5 57 56 -- -- 0 0 --- 0 30.071 75.5 45 30
5/12/02 11:30 AM -- 57.1 57.1 60.1 56.6 -- -- 0 0 --- 0 30.057 75.3 46 30
5/12/02 12:00 PM -- 58.3 58.3 61.3 57.5 -- -- 0 0 --- 0 30.039 75.1 46 30
5/12/02 12:30 PM -- 57.1 57.1 58.9 56.2 -- -- 0 0 --- 0 30.025 75.3 46 30
5/12/02 1:00 PM -- 58.1 58.1 60.1 57.1 -- -- 0 0 --- 0 30.008 75.4 46 30
5/12/02 1:30 PM -- 58.3 58.3 60.5 57.6 -- -- 0 1 --- 0 29.985 75.5 45 30
5/12/02 2:00 PM -- 57.9 57.9 58.8 57.2 -- -- 0 0 --- 0 29.949 75.5 46 30
5/12/02 2:30 PM -- 59 59 62.1 58.1 -- -- 0 0 --- 0 29.922 75.3 46 30
5/12/02 3:00 PM -- 59 59 61.3 58.3 -- -- 0 0 --- 0.09 29.914 75.3 46 30
5/12/02 3:30 PM -- 58.8 58.8 59.4 58.5 -- -- 0 0 --- 0 29.892 75.4 46 30
5/12/02 4:00 PM -- 59.3 59.3 61.6 58.3 -- -- 0 0 --- 0 29.88 75.3 47 30
5/12/02 4:30 PM -- 60.5 60.5 63.5 58.7 -- -- 0 0 --- 0 29.859 75.3 49 30
5/12/02 5:00 PM -- 59.7 59.7 63.3 58.1 -- -- 0 0 --- 0 29.871 75.3 49 30
5/12/02 5:30 PM -- 59.7 59.7 62.6 57.5 -- -- 0 2 ENE 0 29.846 75.3 49 30
5/12/02 6:00 PM -- 58.2 58.2 61.8 56.3 -- -- 0 0 --- 0 29.859 75.7 50 30
5/12/02 6:30 PM -- 56 56 56.5 55.5 -- -- 0 0 --- 0 29.883 76.4 48 30
5/12/02 7:00 PM -- 56.1 56.1 60.9 54.4 -- -- 0 4 SSE 0 29.855 75.7 49 30
5/12/02 7:30 PM -- 56.1 56.1 60.3 55 -- -- 0 0 --- 0 29.823 75.7 49 30
5/12/02 8:00 PM -- 55 55 56.8 54.7 -- -- 0 0 --- 0 29.81 75.6 49 30
5/12/02 8:30 PM -- 55.6 55.6 57.4 55 -- -- 0 0 --- 0 29.816 75.6 48 30
5/12/02 9:00 PM -- 55.4 55.4 55.7 55.1 -- -- 0 0 --- 0 29.841 75.7 48 30
5/12/02 9:30 PM -- 55.6 55.6 55.8 55.3 -- -- 0 0 --- 0 29.839 75.6 48 30
5/12/02 10:00 PM -- 55.7 55.7 56.2 55.3 -- -- 0 0 --- 0 29.817 75.4 48 30
5/12/02 10:30 PM -- 56.6 56.6 59.7 55.4 -- -- 0 0 --- 0 29.811 75.2 48 30
5/12/02 11:00 PM -- 58 58 61.5 56 -- -- 0 0 --- 0 29.818 75.1 48 30
5/12/02 11:30 PM 56 56 56 56.9 55.6 100 56 0 0 --- 0 29.815 75.2 48 30
5/13/02 12:00 AM 55.9 55.9 55.9 56.1 55.7 100 55.9 0 0 --- 0 29.816 74.8 48 30
5/13/02 12:30 AM 55.8 55.8 55.8 56 55.5 100 55.8 0 0 --- 0 29.814 74.3 48 30
5/13/02 1:00 AM 55.7 55.7 55.7 56.1 55.5 100 55.7 0 0 --- 0 29.785 74.7 52 30
5/13/02 1:30 AM 55.7 55.7 55.7 56.1 55.5 100 55.7 0 0 --- 0 29.767 75.7 51 30
5/13/02 2:00 AM 55.7 55.7 55.7 55.9 55.6 100 55.7 0 0 --- 0 29.746 76.8 49 30
5/13/02 2:30 AM 55.8 55.8 55.8 56.1 55.6 100 55.8 0 0 --- 0 29.726 78.4 49 30
5/13/02 3:00 AM 56 56 56 56.2 55.7 100 56 0 0 --- 0 29.743 79 48 30
5/13/02 3:30 AM 55.8 55.8 55.8 56.3 55.4 100 55.8 0 1 SSE 0 29.756 78.5 47 30
5/13/02 4:00 AM 55.2 55.2 55.2 55.4 54.9 100 55.2 0 1 --- 0 29.739 78 47 30
5/13/02 4:30 AM 55.1 55.1 55.1 55.2 54.9 100 55.1 0 0 --- 0 29.749 77.5 47 30
5/13/02 5:00 AM 55 55 55 55.2 54.8 100 55 0 0 --- 0 29.73 77.2 47 30
5/13/02 5:30 AM 54.7 54.7 54.7 54.9 54.6 100 54.7 0 0 --- 0 29.736 77 48 30
5/13/02 6:00 AM 54.7 54.7 54.7 54.9 54.3 100 54.7 0 3 SSE 0 29.733 78 47 30
5/13/02 6:30 AM 54.3 54.3 54.3 54.6 53.8 100 54.3 0 0 --- 0 29.731 78.5 47 30
5/13/02 7:00 AM 54 54 54 54.2 53.8 100 54 0 2 --- 0 29.739 78.5 48 30
5/13/02 7:30 AM 53.6 53.6 53.6 53.9 53.3 100 53.6 0 1 SSE 0 29.719 77.4 48 30
5/13/02 8:00 AM 53.7 53.7 53.7 54 53.5 100 53.7 0 3 SSE 0 29.723 76.5 48 30
5/13/02 8:30 AM 53.8 53.8 53.8 54.3 53.5 100 53.8 0 0 --- 0 29.703 76 47 30
5/13/02 9:00 AM 54 54 54 54.2 53.7 100 54 0 2 --- 0 29.695 75.6 47 30
5/13/02 9:30 AM -- 54.2 54.2 54.6 53.7 -- -- 0 0 --- 0 29.711 75.4 48 30
5/13/02 10:00 AM 54.2 54.2 54.2 54.4 53.8 100 54.2 0 0 --- 0 29.688 76.3 47 30
5/13/02 10:30 AM 54.4 54.4 54.4 54.7 54.2 100 54.4 0 0 --- 0 29.664 76.7 47 30
5/13/02 11:00 AM 54.4 54.4 54.4 54.6 54.2 100 54.4 0 0 --- 0 29.653 76.4 47 30
5/13/02 11:30 AM 54.5 54.5 54.5 54.8 54.2 100 54.5 0 2 SSE 0 29.642 75.8 47 30
5/13/02 12:00 PM 54.8 54.8 54.8 55.1 54.6 100 54.8 0 0 --- 0 29.625 75.2 47 30
5/13/02 12:30 PM 55 55 55 55.5 54.7 100 55 0 3 SSE 0 29.603 74.8 48 30
5/13/02 1:00 PM 55.2 55.2 55.2 55.4 55 100 55.2 0 0 --- 0 29.591 74.3 48 30
5/13/02 1:30 PM 55.1 55.1 55.1 55.4 54.7 100 55.1 0 1 SSE 0 29.57 73.9 48 30
5/13/02 2:00 PM 54.8 54.8 54.8 55.2 54.5 100 54.8 0 0 --- 0 29.554 74.4 48 30
5/13/02 2:30 PM 54.8 54.8 54.8 55.2 54.5 100 54.8 0 5 SSE 0 29.514 75.1 48 30
5/13/02 3:00 PM 55.2 55.2 55.2 55.5 54.7 100 55.2 0 5 SSE 0 29.496 75.2 48 30
5/13/02 3:30 PM 54.8 54.8 54.8 55.5 54.5 100 54.8 0 1 --- 0 29.476 75 48 30
5/13/02 4:00 PM 54.7 54.7 54.7 55.1 54.5 100 54.7 0 0 --- 0 29.444 75 47 30
5/13/02 4:30 PM 54.4 54.4 54.4 54.8 53.7 100 54.4 0 6 SE 0.75 29.451 75 47 30
5/13/02 5:00 PM 53.6 53.6 53.6 53.9 53.3 100 53.6 0 4 S 0 29.418 74.9 47 30
5/13/02 5:30 PM 53.7 53.7 53.7 54 53.2 100 53.7 0 0 --- 0 29.405 74.9 48 30
5/13/02 6:00 PM 52.8 52.8 52.8 53.3 52.2 100 52.8 0 4 S 0 29.411 74.8 48 30
5/13/02 6:30 PM 52.5 52.5 52.5 52.9 52.1 100 52.5 0 2 --- 0 29.4 74.8 48 30
5/13/02 7:00 PM 52.7 52.7 52.7 53 52.4 100 52.7 0 2 S 0 29.392 75.4 49 30
5/13/02 7:30 PM 52.6 52.6 52.6 52.9 52.4 100 52.6 0 0 --- 0 29.366 76.4 48 30
5/13/02 8:00 PM 52.4 52.4 52.4 52.6 52.1 100 52.4 0 0 --- 0 29.357 76.6 47 30
5/13/02 8:30 PM 52 52 52 52.2 51.7 100 52 0 0 --- 0 29.337 76.5 47 30
5/13/02 9:00 PM 51.9 51.9 51.9 52.1 51.7 100 51.9 0 0 --- 0 29.346 76.2 47 30
5/13/02 9:30 PM 52.1 52.1 52.1 52.3 51.9 100 52.1 0 0 --- 0 29.329 75.7 47 30
5/13/02 10:00 PM 51.9 51.9 51.9 52.4 51.5 100 51.9 0 0 --- 0 29.298 75.4 47 30
5/13/02 10:30 PM 52.1 52.1 52.1 52.6 51.8 100 52.1 0 0 --- 0 29.303 75.3 47 30
5/13/02 11:00 PM 52.3 52.3 52.3 52.8 51.9 100 52.3 0 4 S 0 29.291 76.2 47 30
5/13/02 11:30 PM 52.1 52.1 52.1 52.4 51.7 100 52.1 0 0 --- 0 29.264 76.6 47 30
5/14/02 12:00 AM 52.3 52.3 52.3 52.6 51.9 100 52.3 0 0 --- 0 29.271 76.6 46 30
5/14/02 12:30 AM 52.2 52.2 52.2 52.6 52.1 100 52.2 0 0 --- 0 29.295 76.2 46 30
5/14/02 1:00 AM 52 52 52 52.6 51.5 100 52 0 2 S 0 29.342 75.5 46 30
5/14/02 1:30 AM 51.9 51.9 51.9 52.2 51.6 100 51.9 0 0 --- 0 29.35 75.7 47 30
5/14/02 2:00 AM 52.2 52.2 52.2 52.4 51.7 100 52.2 0 0 --- 0 29.355 77.3 46 30
5/14/02 2:30 AM 52.3 52.3 52.3 52.6 52 100 52.3 0 0 --- 0 29.366 78.9 45 30
5/14/02 3:00 AM 52.3 52.3 52.3 52.4 52.1 100 52.3 0 0 --- 0 29.376 78.8 45 30
5/14/02 3:30 AM 52 52 52 52.3 51.8 100 52 0 6 NW 0 29.377 78.2 45 30
5/14/02 4:00 AM 51.9 51.9 51.9 52.1 51.7 100 51.9 0 0 --- 0 29.374 77.7 45 30
5/14/02 4:30 AM 51.7 51.7 51.7 52.1 51.2 100 51.7 0 4 ESE 0 29.373 77.2 45 30
5/14/02 5:00 AM 51.1 51.1 51.1 51.4 50.9 100 51.1 0 5 N 0 29.38 77.2 45 30
5/14/02 5:30 AM 50.9 50.9 50.9 51.1 50.6 100 50.9 0 0 --- 0 29.38 77.9 44 30
5/14/02 6:00 AM 50.6 50.6 50.6 51 50.3 100 50.6 0 0 --- 0 29.386 78 45 30
5/14/02 6:30 AM 50.6 50.6 50.6 51.4 49.9 100 50.6 0 1 --- 0 29.394 77.7 44 30
5/14/02 7:00 AM 51.5 51.5 51.5 51.9 51.3 100 51.5 0 0 --- 0 29.407 77.2 45 30
5/14/02 7:30 AM 51.6 51.6 51.6 51.9 51 100 51.6 0 7 SE 0 29.423 76.7 45 30
5/14/02 8:00 AM 52.5 52.5 52.5 54.3 51.9 100 52.5 0 4 E 0 29.429 76.3 44 30
5/14/02 8:30 AM 53.3 53.3 53.3 53.9 52.8 100 53.3 0 6 SSE 0 29.438 76 44 30
5/14/02 9:00 AM 54 54 54 55.3 53.4 100 54 0 6 SSE 0 29.446 75.6 44 30
5/14/02 9:30 AM 55.5 55.5 55.5 56.8 54.6 100 55.5 0 6 ESE 0 29.441 75.2 44 30
5/14/02 10:00 AM 57.6 57.6 57.6 58.7 56.5 100 57.6 0 7 SSE 0 29.44 76 43 30
5/14/02 10:30 AM 58.3 58.3 58.3 59.8 57.3 100 58.3 1 8 SSE 0 29.445 76.9 43 30
5/14/02 11:00 AM 59 59 59 62.9 57.1 100 59 0 8 SSE 0 29.441 76.9 42 30
5/14/02 11:30 AM 60.5 60.5 60.5 62.4 59 100 60.5 0 7 SSE 0 29.44 76.7 42 30
5/14/02 12:00 PM 59.2 59.2 59.2 63 57.1 100 59.2 0 4 S 0 29.433 76.4 42 30
5/14/02 12:30 PM 63.3 63.3 63.3 66.5 60.5 100 63.3 0 4 SE 0 29.425 76 41 30
5/14/02 1:00 PM 63.2 63.2 63.2 65.7 60.3 100 63.2 0 7 NE 0 29.408 75.9 41 30
5/14/02 1:30 PM 63.2 63.2 63.2 64.8 61.6 100 63.2 0 5 NE 0 29.395 74.8 41 30
5/14/02 2:00 PM 64.6 64.6 64.6 66.8 62.6 100 64.6 0 5 SSE 0 29.381 73.9 41 30
5/14/02 2:30 PM 64.3 64.3 64.3 66.8 61.8 100 64.3 0 6 ESE 0 29.383 73.5 41 30
5/14/02 3:00 PM 61.4 61.4 61.4 63.2 59.7 100 61.4 1 9 SSE 0 29.397 73.2 42 30
5/14/02 3:30 PM 63.8 63.8 63.8 65.2 61.8 100 63.8 1 8 SE 0 29.389 72.7 42 30
5/14/02 4:00 PM 64.1 64.1 64.1 66.5 62.1 100 64.1 1 10 ESE 0 29.377 73.5 42 30
5/14/02 4:30 PM 62.4 62.4 62.4 63.2 61.5 100 62.4 1 8 E 0 29.392 73.9 41 30
5/14/02 5:00 PM 61.8 61.8 61.8 62.4 61.2 100 61.8 0 9 E 0 29.393 73.7 42 30
5/14/02 5:30 PM 59.4 59.4 59.4 61.5 58.1 100 59.4 0 5 SSE 0 29.41 73.6 42 30
5/14/02 6:00 PM 58.6 58.6 58.6 59.4 57.3 100 58.6 1 8 E 0 29.437 73.4 42 30
5/14/02 6:30 PM 54.4 54.4 54.4 57.2 53.6 100 54.4 0 6 SSE 0 29.443 73.3 43 30
5/14/02 7:00 PM 53.5 53.5 53.5 54.5 52.7 100 53.5 0 7 SSE 0 29.453 73.5 42 30
5/14/02 7:30 PM 52.5 52.5 52.5 52.8 52.1 100 52.5 0 4 NNE 0 29.471 73.6 43 30
5/14/02 8:00 PM -- 51.9 51.9 52.4 51.6 -- -- 0 1 --- 0 29.483 73.6 43 30
5/14/02 8:30 PM -- 51.4 51.4 51.7 50.9 -- -- 0 1 SSE 0 29.501 73.5 43 30
5/14/02 9:00 PM -- 51.3 51.3 51.6 51 -- -- 0 0 --- 0 29.518 73.4 44 30
5/14/02 9:30 PM 51.1 51.1 51.1 51.4 50.8 100 51.1 0 8 E 0 29.538 74.8 43 30
5/14/02 10:00 PM 50.2 50.2 50.2 50.9 49.7 100 50.2 0 5 N 0 29.555 75.6 42 30
5/14/02 10:30 PM 49.9 49.9 49.9 50.3 49.6 100 49.9 0 4 SSE 0 29.578 75.6 41 30
5/14/02 11:00 PM 49.4 49.4 49.4 50.3 48.7 100 49.4 0 10 SSE 0 29.581 75.3 40 30
5/14/02 11:30 PM 48.2 48.2 48.2 48.9 47.8 100 48.2 0 1 --- 0 29.597 74.8 41 30
5/15/02 12:00 AM 47.6 47.6 47.6 48.1 47.3 100 47.6 0 1 SSE 0.23 29.605 75.1 42 30
5/15/02 12:30 AM 47.6 47.6 47.6 47.9 47.3 100 47.6 0 1 --- 0 29.61 75.6 43 30
5/15/02 1:00 AM 47.6 47.6 47.6 47.8 47.2 100 47.6 0 4 NNW 0 29.618 75.9 43 30
5/15/02 1:30 AM 47.7 47.7 47.7 47.9 47.3 100 47.7 0 4 N 0 29.624 75.4 42 30
5/15/02 2:00 AM 47.8 47.8 47.8 48.2 47.6 100 47.8 0 3 ESE 0 29.63 75.1 43 30
5/15/02 2:30 AM 47.9 47.9 47.9 48.2 47.6 100 47.9 0 4 N 0 29.637 75.9 42 30
5/15/02 3:00 AM 47.8 47.8 47.8 48.1 47.6 100 47.8 0 2 --- 0 29.654 76.2 41 30
5/15/02 3:30 AM 47.7 47.7 47.7 48.1 47.5 100 47.7 0 4 N 0 29.672 75.9 41 30
5/15/02 4:00 AM 48 48 48 48.3 47.7 100 48 0 7 N 0 29.688 75.3 40 30
5/15/02 4:30 AM 47.9 47.9 47.9 48.2 47.4 100 47.9 0 2 --- 0 29.69 75.2 41 30
5/15/02 5:00 AM 46.7 46.7 46.7 47.5 46 100 46.7 0 0 --- 0 29.7 76 41 30
5/15/02 5:30 AM 45.9 45.9 45.9 46.3 45.7 100 45.9 0 0 --- 0 29.717 76.1 40 30
5/15/02 6:00 AM 45.5 45.5 45.5 45.8 45 100 45.5 0 0 --- 0 29.726 75.7 38 30
5/15/02 6:30 AM 45.9 45.9 45.9 46.8 45 100 45.9 0 0 --- 0 29.746 75.5 40 30
5/15/02 7:00 AM 47.8 47.8 47.8 49.4 46.8 100 47.8 0 1 N 0 29.757 76.3 42 30
5/15/02 7:30 AM 50.4 50.4 50.4 51.6 49.3 100 50.4 0 3 N 0 29.77 76.3 41 30
5/15/02 8:00 AM 51.9 51.9 51.9 52.4 51.5 100 51.9 0 6 SE 0 29.775 75.9 40 30
5/15/02 8:30 AM 52.9 52.9 52.9 54.1 52.2 100 52.9 0 8 ENE 0 29.787 75.2 40 30
5/15/02 9:00 AM 54.3 54.3 54.3 55 53.8 100 54.3 1 8 SSE 0 29.803 74.5 39 30
5/15/02 9:30 AM 56.1 56.1 56.1 56.8 54.8 100 56.1 0 5 SSE 0 29.802 74 39 30
5/15/02 10:00 AM 58.1 58.1 58.1 59.4 56.7 100 58.1 0 7 SE 0 29.807 73.5 39 30
5/15/02 10:30 AM 60.2 60.2 60.2 62.2 58.4 100 60.2 1 9 ESE 0 29.813 73.1 39 30
5/15/02 11:00 AM 62.6 62.6 62.6 64 60.9 100 62.6 0 6 SE 0 29.819 72.8 39 30
5/15/02 11:30 AM 63.9 63.9 63.9 65.1 62.9 100 63.9 1 9 SSE 0 29.819 72.6 39 30
5/15/02 12:00 PM 65.8 65.8 65.8 67.4 64.3 100 65.8 1 9 SSE 0 29.821 72.5 39 30
5/15/02 12:30 PM 66.9 66.9 66.9 68.5 65.5 100 66.9 1 8 SSE 0 29.824 72.5 40 30
5/15/02 1:00 PM 70 68.2 68.2 70.2 66.8 100 68.2 1 8 SSE 0 29.814 72.3 40 30
5/15/02 1:30 PM 67.9 67.9 67.9 71 64.7 100 67.9 0 5 SE 0 29.819 72.1 40 30
5/15/02 2:00 PM 67.6 67.6 67.6 70.7 66 100 67.6 1 8 SE 0 29.823 71.9 40 30
5/15/02 2:30 PM 72 69 69 70.7 66.7 100 69 1 8 SE 0 29.83 71.8 40 30
5/15/02 3:00 PM 75 71.1 71.1 72.7 69 100 71.1 0 8 ESE 0 29.83 71.7 40 30
5/15/02 3:30 PM 74 69.9 69.9 72.1 67.2 100 69.9 1 8 SE 0 29.839 71.7 40 30
5/15/02 4:00 PM 74 69.9 69.9 71.6 67.9 100 69.9 1 8 SSE 0 29.842 71.6 40 30
5/15/02 4:30 PM 74 69.5 69.5 70.5 67.9 100 69.5 1 7 SE 0 29.84 71.5 40 30
5/15/02 5:00 PM 72 68.8 68.8 69.8 68 100 68.8 0 5 SE 0 29.845 71.6 40 30
5/15/02 5:30 PM 70 68.3 68.3 68.8 67.6 100 68.3 0 7 SE 0 29.855 71.6 41 30
5/15/02 6:00 PM 67.6 67.6 67.6 68 67.4 100 67.6 0 6 SSE 0 29.851 71.8 42 30
5/15/02 6:30 PM 67.2 67.2 67.2 67.7 66.7 100 67.2 0 6 SSE 0 29.859 72.4 42 30
5/15/02 7:00 PM 66.3 66.3 66.3 66.8 65.7 100 66.3 0 6 N 0 29.862 72.7 42 30
5/15/02 7:30 PM 65.3 65.3 65.3 65.8 64.8 100 65.3 0 4 NNE 0 29.867 73 44 30
5/15/02 8:00 PM 64.5 64.5 64.5 65.8 62.7 100 64.5 0 0 --- 0 29.875 74.4 43 30
5/15/02 8:30 PM 61.8 61.8 61.8 62.8 60.4 100 61.8 0 0 --- 0 29.885 75.7 42 30
5/15/02 9:00 PM 58.8 58.8 58.8 60.4 57.9 100 58.8 0 0 --- 0 29.902 76.1 41 30
5/15/02 9:30 PM 57.3 57.3 57.3 57.9 56.6 100 57.3 0 0 --- 0 29.916 76.1 41 30
5/15/02 10:00 PM -- 56.1 56.1 57 55.1 -- -- 0 0 --- 0 29.922 75.9 41 30
5/15/02 10:30 PM 54.6 54.6 54.6 55.2 54.1 100 54.6 0 0 --- 0 29.924 76.4 41 30
5/15/02 11:00 PM 53.6 53.6 53.6 54.2 53.3 100 53.6 0 0 --- 0 29.929 77.2 40 30
5/15/02 11:30 PM 53.5 53.5 53.5 53.7 53.2 100 53.5 0 0 --- 0 29.935 77.2 40 30
5/16/02 12:00 AM 53 53 53 53.4 52.6 100 53 0 0 --- 0 29.937 77 40 30
5/16/02 12:30 AM 52.3 52.3 52.3 52.9 52 100 52.3 0 0 --- 0 29.944 76.6 39 30
5/16/02 1:00 AM -- 52.6 52.6 52.9 52.3 -- -- 0 0 --- 0 29.946 76.3 40 30
5/16/02 1:30 AM 52 52 52 52.2 51.6 100 52 0 0 --- 0 29.946 77.1 40 30
5/16/02 2:00 AM 51.2 51.2 51.2 51.7 50.8 100 51.2 0 0 --- 0 29.95 77.5 39 30
5/16/02 2:30 AM 50.5 50.5 50.5 50.8 49.9 100 50.5 0 0 --- 0 29.953 77.2 39 30
5/16/02 3:00 AM 49.7 49.7 49.7 50.2 49 100 49.7 0 0 --- 0 29.961 77 39 30
5/16/02 3:30 AM 48.5 48.5 48.5 49.4 48 100 48.5 0 0 --- 0 29.968 76.5 42 30
5/16/02 4:00 AM 48.1 48.1 48.1 48.6 47.3 100 48.1 0 0 --- 0 29.965 77.5 44 30
5/16/02 4:30 AM 47.7 47.7 47.7 49.3 47.1 100 47.7 0 0 --- 0 29.964 77.8 43 30
5/16/02 5:00 AM 50.6 50.6 50.6 53.8 47.1 100 50.6 0 0 --- 0 29.971 77.6 42 30
5/16/02 5:30 AM 46.2 46.2 46.2 47.4 45.5 100 46.2 0 0 --- 0 29.975 78.2 40 30
5/16/02 6:00 AM 45.7 45.7 45.7 46.2 45 100 45.7 0 0 --- 0 29.974 78.9 39 30
5/16/02 6:30 AM 46.7 46.7 46.7 47.6 45.9 100 46.7 0 0 --- 0 29.974 79.1 38 30
5/16/02 7:00 AM 49.1 49.1 49.1 50.9 47.6 100 49.1 0 0 --- 0 29.979 78.5 39 30
5/16/02 7:30 AM 52.8 52.8 52.8 54.4 50.9 100 52.8 0 0 --- 0 29.981 78 41 30
5/16/02 8:00 AM 55.5 55.5 55.5 56.5 54.3 100 55.5 0 0 --- 0 29.967 77.4 41 30
5/16/02 8:30 AM 58.1 58.1 58.1 59.5 56.5 100 58.1 0 0 --- 0 29.96 77 41 30
5/16/02 9:00 AM 61 61 61 62.7 59.5 100 61 0 0 --- 0 29.955 76.8 41 30
5/16/02 9:30 AM 64.6 64.6 64.6 66.6 62.7 100 64.6 0 0 --- 0 29.945 76.5 41 30
5/16/02 10:00 AM 72 68.6 68.6 70.4 66.6 100 68.6 0 0 --- 0 29.921 77.2 41 30
5/16/02 10:30 AM 76 72.1 72.1 73.9 70.3 100 72.1 0 0 --- 0 29.907 77.9 40 30
5/16/02 11:00 AM 78 74.4 74.4 75.6 73.2 100 74.4 0 0 --- 0 29.904 77.1 41 30
5/16/02 11:30 AM 82 76.7 76.7 77.4 75.4 100 76.7 0 4 SE 0 29.887 76.3 41 30
5/16/02 12:00 PM 84 78.2 78.2 79.3 77.3 100 78.2 0 5 SSE 0 29.878 75.8 42 30
5/16/02 12:30 PM -- 78.6 78.6 80.2 77.5 -- -- 0 5 NE 0 29.861 75.5 42 30
5/16/02 1:00 PM 82 77.4 77.4 79.5 75.9 100 77.4 0 3 N 0 29.853 75.3 42 30
5/16/02 1:30 PM 93 80.9 80.9 81.9 79.5 100 80.9 0 4 ESE 0 29.832 75.2 42 30
5/16/02 2:00 PM 93 81.2 81.2 83.3 80.1 100 81.2 0 7 ENE 0 29.811 75.2 42 30
5/16/02 2:30 PM 87 79.1 79.1 82.5 77.5 100 79.1 0 4 E 0 29.789 75.2 41 30
5/16/02 3:00 PM 96 81.7 81.7 82.7 78.7 100 81.7 0 4 SSE 0 29.776 75.1 41 30
5/16/02 3:30 PM -- 82.4 82.4 83.1 81.6 -- -- 0 5 NE 0 29.767 75.3 42 30
5/16/02 4:00 PM 96 82.2 82.2 82.9 81.3 100 82.2 0 7 E 0 29.757 75.7 42 30
5/16/02 4:30 PM -- 80.9 80.9 81.4 80.4 -- -- 0 5 NE 0 29.757 75.9 42 30
5/16/02 5:00 PM -- 80.3 80.3 80.9 79.4 -- -- 0 2 NE 0 29.749 76.3 43 30
5/16/02 5:30 PM 87 79.1 79.1 79.9 78 100 79.1 0 3 NE 0 29.741 76.6 43 30
5/16/02 6:00 PM -- 77.9 77.9 78.6 77.3 -- -- 0 1 --- 0 29.733 76.8 43 30
5/16/02 6:30 PM -- 77 77 77.5 76.3 -- -- 0 0 --- 0 29.735 77 43 30
5/16/02 7:00 PM -- 76.3 76.3 76.9 75.3 -- -- 0 5 ENE 0 29.738 77.3 43 30
5/16/02 7:30 PM -- 75 75 75.5 74.1 -- -- 0 0 --- 0 29.743 77.4 43 30
5/16/02 8:00 PM -- 72.8 72.8 74.1 71.6 -- -- 0 0 --- 0 29.741 77.5 43 30
5/16/02 8:30 PM -- 72 72 72.4 71.6 -- -- 0 0 --- 0 29.737 77.7 43 30
5/16/02 9:00 PM -- 70.7 70.7 71.6 70 -- -- 0 0 --- 0 29.742 77.9 43 30
5/16/02 9:30 PM -- 71.4 71.4 72.8 70 -- -- 0 0 --- 0 29.746 78 44 30
5/16/02 10:00 PM -- 70.5 70.5 72.5 68.7 -- -- 0 0 --- 0 29.743 78.2 44 30
5/16/02 10:30 PM 70 68.3 68.3 68.7 68 100 68.3 0 0 --- 0 29.74 78.3 44 30
5/16/02 11:00 PM 67.9 67.9 67.9 68.1 67.5 100 67.9 0 0 --- 0 29.732 78.4 44 30
5/16/02 11:30 PM 67.3 67.3 67.3 67.8 67 100 67.3 0 0 --- 0 29.723 78.4 44 30
5/17/02 12:00 AM 66.6 66.6 66.6 67 66.2 100 66.6 0 0 --- 0 29.713 78.4 44 30
5/17/02 12:30 AM 66 66 66 66.3 65.7 100 66 0 0 --- 0 29.701 78.3 44 30
5/17/02 1:00 AM 65.6 65.6 65.6 66.1 65.2 100 65.6 0 0 --- 0 29.694 78.3 44 30
5/17/02 1:30 AM 66 66 66 66.2 65.9 100 66 0 0 --- 0 29.685 78.2 44 30
5/17/02 2:00 AM 66.1 66.1 66.1 66.2 65.8 100 66.1 0 0 --- 0 29.685 78.1 44 30
5/17/02 2:30 AM 65.9 65.9 65.9 66.1 65.7 100 65.9 0 0 --- 0 29.676 77.9 44 30
5/17/02 3:00 AM 66 66 66 66.2 65.8 100 66 0 0 --- 0 29.682 77.7 44 30
5/17/02 3:30 AM 65.9 65.9 65.9 66.3 65.1 100 65.9 0 0 --- 0 29.682 77.4 44 30
5/17/02 4:00 AM 65.5 65.5 65.5 65.8 65.2 100 65.5 0 0 --- 0 29.676 78 44 30
5/17/02 4:30 AM 65 65 65 65.6 64.6 100 65 0 0 --- 0 29.658 79.1 44 30
5/17/02 5:00 AM 64.5 64.5 64.5 64.7 64.3 100 64.5 0 0 --- 0 29.649 79.5 43 30
5/17/02 5:30 AM 63.9 63.9 63.9 64.3 62.9 100 63.9 0 0 --- 0 29.651 79.1 43 30
5/17/02 6:00 AM 62.4 62.4 62.4 62.9 62.1 100 62.4 0 0 --- 0 29.646 79 43 30
5/17/02 6:30 AM 62.8 62.8 62.8 63.2 62.4 100 62.8 0 0 --- 0 29.645 78.9 44 30
5/17/02 7:00 AM 63 63 63 63.4 62.9 100 63 0 0 --- 0 29.653 78.8 45 30
5/17/02 7:30 AM 63.9 63.9 63.9 64.3 63.4 100 63.9 0 0 --- 0 29.658 78.6 45 30
5/17/02 8:00 AM 64.5 64.5 64.5 64.8 64.2 100 64.5 0 0 --- 0 29.653 78.4 45 30
5/17/02 8:30 AM 65.9 65.9 65.9 66.6 64.7 100 65.9 0 0 --- 0 29.656 78.4 45 30
5/17/02 9:00 AM 66.7 66.7 66.7 67.3 66.4 100 66.7 0 0 --- 0 29.664 78.3 45 30
5/17/02 9:30 AM 74 69.6 69.6 71.4 67.3 100 69.6 0 0 --- 0 29.654 78.1 45 30
5/17/02 10:00 AM 76 72 72 73.8 70.1 100 72 0 5 NNE 0 29.66 78.1 45 30
5/17/02 10:30 AM 79 74.8 74.8 76.5 73.7 100 74.8 0 4 ESE 0 29.661 78 45 30
5/17/02 11:00 AM 80 76.1 76.1 77.9 74.6 100 76.1 0 6 E 0 29.66 78 45 30
5/17/02 11:30 AM -- 76.9 76.9 79.1 75 -- -- 0 6 SE 0 29.661 78.1 45 30
5/17/02 12:00 PM 79 75.3 75.3 77.5 74.3 100 75.3 0 4 NE 0 29.663 78.3 45 30
5/17/02 12:30 PM 80 75.9 75.9 77.1 74.5 100 75.9 0 3 ESE 0 29.654 78.4 45 30
5/17/02 1:00 PM -- 74.4 74.4 76.4 73.3 -- -- 0 4 NW 0 29.653 78.4 45 30
5/17/02 1:30 PM -- 78.8 78.8 81.7 76 -- -- 0 0 --- 0 29.655 77.9 45 30
5/17/02 2:00 PM 90 80.2 80.2 82.7 78.2 100 80.2 0 0 --- 0 29.651 77.5 45 30
5/17/02 2:30 PM -- 78.9 78.9 81.8 76.3 -- -- 0 1 --- 0 29.639 77.3 46 30
5/17/02 3:00 PM -- 79.2 79.2 82.5 76.9 -- -- 0 4 WNW 0 29.641 77.3 46 30
5/17/02 3:30 PM -- 79.6 79.6 82.4 76.7 -- -- 0 4 NNE 0 29.632 77.4 46 30
5/17/02 4:00 PM 84 78.1 78.1 79.9 77.1 100 78.1 0 4 N 0 29.629 77.5 46 30
5/17/02 4:30 PM -- 77 77 79.6 75.7 -- -- 0 4 SE 0 29.634 77.5 46 30
5/17/02 5:00 PM -- 75.7 75.7 76.1 75.3 -- -- 0 3 SE 0 29.634 77.7 47 30
5/17/02 5:30 PM -- 75.4 75.4 76.1 74.6 -- -- 0 4 SE 0 29.64 78 48 30
5/17/02 6:00 PM -- 75 75 75.9 74 -- -- 0 0 --- 0 29.649 78.3 48 30
5/17/02 6:30 PM -- 73.1 73.1 74 72.3 -- -- 0 0 --- 0 29.645 78.6 48 30
5/17/02 7:00 PM -- 71.6 71.6 72.3 70.9 -- -- 0 0 --- 0 29.661 78.7 49 30
5/17/02 7:30 PM 74 70.4 70.4 71 69.5 100 70.4 0 4 SE 0 29.669 78.8 48 30
5/17/02 8:00 PM -- 68.7 68.7 69.5 68 -- -- 0 4 SE 0 29.671 78.8 47 30
5/17/02 8:30 PM -- 67.5 67.5 68.1 67 -- -- 0 4 SE 0 29.673 78.7 47 30
5/17/02 9:00 PM 66.6 66.6 66.6 67 66.1 100 66.6 0 0 --- 0 29.685 78.6 47 30
5/17/02 9:30 PM -- 64.7 64.7 66.1 63.7 -- -- 0 5 SE 0 29.7 78.5 46 30
5/17/02 10:00 PM -- 62.8 62.8 63.7 61.5 -- -- 0 4 SE 0 29.704 78.4 45 30
5/17/02 10:30 PM -- 61 61 61.5 60.3 -- -- 0 0 --- 0 29.721 78.3 45 30
5/17/02 11:00 PM -- 59.7 59.7 60.4 58.9 -- -- 0 0 --- 0 29.682 78.1 45 30
5/17/02 11:30 PM -- 58.5 58.5 59 58.2 -- -- 0 0 --- 0 29.68 78 44 30
5/18/02 12:00 AM 57.8 57.8 57.8 58.3 57.4 100 57.8 0 0 --- 0 29.667 77.9 44 30
5/18/02 12:30 AM 57.4 57.4 57.4 57.7 57.3 100 57.4 0 0 --- 0 29.666 77.7 44 30
5/18/02 1:00 AM 56 56 56 57.6 54.4 100 56 0 0 --- 0 29.652 77.6 44 30
5/18/02 1:30 AM 53.8 53.8 53.8 54.5 53.2 100 53.8 0 1 SSE 0 29.661 77.5 44 30
5/18/02 2:00 AM 52.8 52.8 52.8 53.8 52 100 52.8 0 1 --- 0 29.639 77.3 44 30
5/18/02 2:30 AM 51.4 51.4 51.4 52.2 50.9 100 51.4 0 1 SSE 0 29.647 77 44 30
5/18/02 3:00 AM 50.9 50.9 50.9 51.5 50.3 100 50.9 0 1 SSE 0 29.591 76.8 44 30
5/18/02 3:30 AM 50.7 50.7 50.7 51.1 50.3 100 50.7 0 0 --- 0 29.565 76.5 44 30
5/18/02 4:00 AM 50.6 50.6 50.6 50.8 50.3 100 50.6 0 1 --- 0 29.549 76.2 44 30
5/18/02 4:30 AM 50.4 50.4 50.4 50.6 50.1 100 50.4 0 1 SSE 0 29.54 75.9 44 30
5/18/02 5:00 AM 50.3 50.3 50.3 51.1 49.7 100 50.3 0 1 --- 0 29.533 75.5 44 30
5/18/02 5:30 AM 49.9 49.9 49.9 50.1 49.6 100 49.9 0 1 --- 0 29.501 75.3 44 30
5/18/02 6:00 AM 49.7 49.7 49.7 49.9 49.5 100 49.7 0 1 --- 0 29.48 75 44 30
5/18/02 6:30 AM 49.7 49.7 49.7 50.1 49.3 100 49.7 0 2 --- 0 29.445 74.5 45 30
5/18/02 7:00 AM 49.1 49.1 49.1 49.7 48.7 100 49.1 0 5 S 0 29.45 74.6 45 30
5/18/02 7:30 AM -- 48.6 48.6 48.9 48.2 -- -- 0 4 S 0 29.448 74.7 46 30
5/18/02 8:00 AM -- 48.1 48.1 48.5 47.6 -- -- 0 2 NE 0 29.468 74.4 45 30
5/18/02 8:30 AM 47.7 47.7 47.7 50.9 47 100 47.7 0 2 NE 0 29.472 74.3 45 30
5/18/02 9:00 AM -- 46.2 46.2 49.2 44.8 -- -- 0 5 SSE 0 29.492 74.1 45 30
5/18/02 9:30 AM -- 45.3 45.3 48.1 44.2 -- -- 0 3 SSE 3.32 29.487 74 45 30
5/18/02 10:00 AM 44.6 44.6 44.6 47 43.9 100 44.6 0 3 NNE 0 29.487 74.2 46 30
5/18/02 10:30 AM 45.3 45.3 45.3 46.1 44.5 100 45.3 0 5 SSE 0 29.505 75.1 45 30
5/18/02 11:00 AM 46.2 46.2 46.2 46.6 45.6 100 46.2 0 6 SSE 0 29.527 75.3 44 30
5/18/02 11:30 AM 45.8 45.8 45.8 46.4 45.4 100 45.8 0 7 SSE 0 29.543 76.2 43 30
5/18/02 12:00 PM -- 45.7 45.7 46.2 45.4 -- -- 1 9 SSE 0 29.558 76.6 43 30
5/18/02 12:30 PM 47 47 47 48.9 45.9 100 47 1 6 SSE 0 29.58 77.3 42 30
5/18/02 1:00 PM 49.5 49.5 49.5 50.6 48.5 100 49.5 1 6 SSE 0 29.599 78.1 41 30
5/18/02 1:30 PM 50.6 50.6 50.6 51.2 49.8 100 50.6 1 7 SSE 0 29.636 77.8 41 30
5/18/02 2:00 PM 50.9 50.9 50.9 51.7 50.3 100 50.9 1 6 SSE 0 29.649 77.2 41 30
5/18/02 2:30 PM 50.2 50.2 50.2 50.7 49.6 100 50.2 1 7 SSE 0 29.668 76.8 41 30
5/18/02 3:00 PM 50.8 50.8 50.8 51.8 49.9 100 50.8 0 8 SSE 0 29.665 76.3 41 30
5/18/02 3:30 PM -- 51.9 51.9 52.6 51.1 -- -- 0 4 SSE 0 29.68 76 42 30
5/18/02 4:00 PM 51.9 51.9 51.9 53.7 51.1 100 51.9 0 7 SE 0 29.689 76.8 41 30
5/18/02 4:30 PM 54.3 54.3 54.3 55.6 53 100 54.3 0 8 SSE 0 29.682 77.3 41 30
5/18/02 5:00 PM 53.7 53.7 53.7 54.3 53.1 100 53.7 0 2 SSE 0 29.703 76.6 41 30
5/18/02 5:30 PM 54.4 54.4 54.4 55.5 53.8 100 54.4 0 0 --- 0 29.704 75.9 41 30
5/18/02 6:00 PM 55.1 55.1 55.1 56.1 54.4 100 55.1 0 0 --- 0 29.71 75.1 40 30
5/18/02 6:30 PM -- 54.5 54.5 55.1 54.1 -- -- 0 0 --- 0 29.725 74.8 42 30
5/18/02 7:00 PM -- 54.7 54.7 55.3 54.3 -- -- 0 6 SSE 0 29.743 75.6 42 30
5/18/02 7:30 PM 54.3 54.3 54.3 55.3 52.7 100 54.3 0 5 SSE 0 29.766 75.8 42 30
5/18/02 8:00 PM -- 52.8 52.8 53 52.5 -- -- 0 3 SSE 0 29.787 75.7 41 30
5/18/02 8:30 PM -- 52.1 52.1 52.8 51.2 -- -- 0 4 SSE 0 29.804 75.5 40 30
5/18/02 9:00 PM -- 50.2 50.2 51.2 49.3 -- -- 0 5 SSE 0 29.817 75.2 40 30
5/18/02 9:30 PM 49 49 49 49.4 48.5 100 49 0 0 --- 0 29.837 74.8 40 30
5/18/02 10:00 PM -- 48.2 48.2 48.7 47.7 -- -- 0 0 --- 0 29.852 74.5 40 30
5/18/02 10:30 PM -- 47.7 47.7 48.1 47.3 -- -- 0 4 SSE 0 29.85 74.8 40 30
5/18/02 11:00 PM 47.1 47.1 47.1 47.8 46.1 100 47.1 0 0 --- 0 29.862 75.7 39 30
5/18/02 11:30 PM -- 45.4 45.4 46.1 44.5 -- -- 0 0 --- 0 29.877 75.9 38 30
5/19/02 12:00 AM 43.9 43.9 43.9 44.5 42.9 100 43.9 0 0 --- 0 29.885 75.6 38 30
5/19/02 12:30 AM 42.9 42.9 42.9 43.3 42.5 100 42.9 0 0 --- 0 29.89 75.1 38 30
5/19/02 1:00 AM 42.4 42.4 42.4 42.9 41.9 100 42.4 0 0 --- 0 29.892 75.4 38 30
5/19/02 1:30 AM 41.7 41.7 41.7 42.1 41 100 41.7 0 0 --- 0 29.894 76 38 30
5/19/02 2:00 AM 40.7 40.7 40.7 41.6 39.9 100 40.7 0 0 --- 0 29.898 76.1 37 30
5/19/02 2:30 AM 40.3 40.3 40.3 41.1 39.7 100 40.3 0 0 --- 0 29.906 75.7 36 30
5/19/02 3:00 AM 39.6 39.6 39.6 40.5 38.8 100 39.6 0 0 --- 0 29.915 75.2 38 30
5/19/02 3:30 AM 38.9 38.9 38.9 39.7 38.4 100 38.9 0 0 --- 0 29.919 75.7 37 30
5/19/02 4:00 AM 38.3 38.3 38.3 38.9 37.6 100 38.3 0 0 --- 0 29.922 75.6 36 30
5/19/02 4:30 AM 37.4 37.4 37.4 38.1 37 100 37.4 0 0 --- 0 29.926 75.2 36 30
5/19/02 5:00 AM 37.3 37.3 37.3 38 36.3 100 37.3 0 0 --- 0 29.941 74.9 37 30
5/19/02 5:30 AM 37.5 37.5 37.5 38.1 36.9 100 37.5 0 0 --- 0 29.943 75.9 36 30
5/19/02 6:00 AM 37.3 37.3 37.3 38 36.7 100 37.3 0 0 --- 0 29.946 75.9 35 30
5/19/02 6:30 AM 37.8 37.8 37.8 38.9 37 100 37.8 0 0 --- 0 29.954 75.5 35 30
5/19/02 7:00 AM -- 40.5 40.5 43.4 38.3 -- -- 0 0 --- 0 29.975 75 37 30
5/19/02 7:30 AM 44.9 44.9 44.9 47.3 43.4 100 44.9 0 3 SSE 0 29.994 75.7 36 30
5/19/02 8:00 AM 47.6 47.6 47.6 48.6 46.1 100 47.6 0 0 --- 0 29.992 75.7 36 30
5/19/02 8:30 AM -- 47 47 47.8 45.9 -- -- 0 3 SSE 0 29.989 75.5 37 30
5/19/02 9:00 AM -- 49 49 49.8 47.7 -- -- 0 3 SSE 0 29.988 75.3 37 30
5/19/02 9:30 AM -- 50.5 50.5 51.4 49.4 -- -- 0 3 SE 0 29.987 74.9 39 30
5/19/02 10:00 AM -- 52.3 52.3 53.2 51.1 -- -- 0 1 SE 0 29.988 75.6 39 30
5/19/02 10:30 AM -- 54.3 54.3 56.5 52.8 -- -- 0 5 SE 0 29.986 75.8 39 30
5/19/02 11:00 AM -- 55.9 55.9 58.9 53.4 -- -- 0 4 ESE 0 29.985 75.6 38 30
5/19/02 11:30 AM -- 57.2 57.2 59.3 54.8 -- -- 0 5 NNW 0 29.981 75.3 37 30
5/19/02 12:00 PM -- 57.9 57.9 59.1 56 -- -- 0 5 SE 0 29.983 75 37 30
5/19/02 12:30 PM -- 57.3 57.3 58.8 55.8 -- -- 0 6 SE 0 29.976 74.6 37 30
5/19/02 1:00 PM -- 59.4 59.4 61.3 57.5 -- -- 0 5 SE 0 29.97 74.8 38 30
5/19/02 1:30 PM -- 59.7 59.7 62.2 57.3 -- -- 0 4 SSE 0 29.963 75.4 37 30
5/19/02 2:00 PM -- 61.9 61.9 64.6 58.2 -- -- 0 6 SSE 0 29.961 75.5 37 30
5/19/02 2:30 PM -- 63.9 63.9 66.8 59.8 -- -- 0 4 SE 0 29.951 75.4 36 30
5/19/02 3:00 PM -- 65.3 65.3 68.3 60.4 -- -- 0 4 SE 0 29.941 75.2 36 30
5/19/02 3:30 PM -- 60 60 61.7 58.2 -- -- 0 4 SE 0 29.944 74.9 36 30
5/19/02 4:00 PM -- 62.3 62.3 66.1 58.3 -- -- 0 3 NE 0 29.94 74.6 37 30
5/19/02 4:30 PM -- 62.4 62.4 65.8 59.3 -- -- 0 1 --- 0 29.947 74.7 37 30
5/19/02 5:00 PM -- 60.1 60.1 61.5 59 -- -- 0 2 ESE 0 29.939 74.7 38 30
5/19/02 5:30 PM -- 61.7 61.7 63 59.6 -- -- 0 5 SE 0 29.937 74.7 38 30
5/19/02 6:00 PM -- 59.3 59.3 60 58.3 -- -- 0 4 SE 0 29.942 74.4 37 30
5/19/02 6:30 PM -- 59.8 59.8 60.3 59.1 -- -- 0 3 E 0 29.951 74.7 38 30
5/19/02 7:00 PM -- 58.4 58.4 59.5 57.2 -- -- 0 4 SSE 0 29.963 74.7 39 30
5/19/02 7:30 PM -- 56.5 56.5 57.2 55.9 -- -- 0 4 SE 0 29.976 74.5 39 30
5/19/02 8:00 PM -- 55.1 55.1 55.9 54.4 -- -- 0 1 --- 0 29.986 74.3 39 30
5/19/02 8:30 PM -- 53.7 53.7 54.4 53.2 -- -- 0 0 --- 0 30.002 74.2 39 30
5/19/02 9:00 PM -- 52.8 52.8 53.3 52 -- -- 0 0 --- 0 30.01 74 39 30
5/19/02 9:30 PM -- 51.7 51.7 52.1 51.3 -- -- 0 0 --- 0 30.024 73.9 39 30
5/19/02 10:00 PM -- 51.3 51.3 52.1 50.9 -- -- 0 0 --- 0 30.032 73.8 40 30
5/19/02 10:30 PM -- 52.4 52.4 54.8 50.3 -- -- 0 3 SE 0 30.035 73.7 39 30
5/19/02 11:00 PM -- 49.5 49.5 50.6 49 -- -- 0 0 --- 0 30.028 73.4 39 30
5/19/02 11:30 PM 49.1 49.1 49.1 49.4 48.9 100 49.1 0 0 --- 0 30.026 73.2 39 30
5/20/02 12:00 AM 49.4 49.4 49.4 49.7 49.1 100 49.4 0 0 --- 0 30.026 73.7 39 30
5/20/02 12:30 AM -- 49.2 49.2 49.5 48.4 -- -- 0 0 --- 0 30.031 75.3 38 30
5/20/02 1:00 AM 47.4 47.4 47.4 48.4 46 100 47.4 0 0 --- 0 30.031 76.2 39 30
5/20/02 1:30 AM 45.2 45.2 45.2 46 43.7 100 45.2 0 0 --- 0 30.034 76.4 38 30
5/20/02 2:00 AM 43.2 43.2 43.2 43.8 42.9 100 43.2 0 0 --- 0 30.04 76 38 30
5/20/02 2:30 AM 42.5 42.5 42.5 43.8 41.7 100 42.5 0 0 --- 0 30.031 76.1 38 30
5/20/02 3:00 AM 41.3 41.3 41.3 42.3 40.8 100 41.3 0 0 --- 0 30.034 76.9 36 30
5/20/02 3:30 AM 40.8 40.8 40.8 41.5 40.1 100 40.8 0 0 --- 0 30.036 76.7 36 30
5/20/02 4:00 AM 39.5 39.5 39.5 40.4 38.7 100 39.5 0 0 --- 0 30.04 76 35 30
5/20/02 4:30 AM 39.2 39.2 39.2 39.8 38.9 100 39.2 0 0 --- 0 30.038 75.7 36 30
5/20/02 5:00 AM 38.3 38.3 38.3 39.1 37.6 100 38.3 0 0 --- 0 30.04 76.4 35 30
5/20/02 5:30 AM 38.3 38.3 38.3 38.8 37.7 100 38.3 0 0 --- 0 30.048 76.2 34 30
5/20/02 6:00 AM 38.1 38.1 38.1 38.8 37.3 100 38.1 0 0 --- 0 30.057 75.6 35 30
5/20/02 6:30 AM 38.9 38.9 38.9 39.7 38.4 100 38.9 0 0 --- 0 30.061 75.5 35 30
5/20/02 7:00 AM 41.3 41.3 41.3 43.8 39.7 100 41.3 0 0 --- 0 30.063 75.7 36 30
5/20/02 7:30 AM 45 45 45 46 43.8 100 45 0 0 --- 0 30.061 75.3 36 30
5/20/02 8:00 AM -- 47 47 48.1 45.9 -- -- 0 0 --- 0 30.07 74.6 36 30
5/20/02 8:30 AM 48.7 48.7 48.7 49.5 47.9 100 48.7 0 0 --- 0 30.068 74 36 30
5/20/02 9:00 AM 49.6 49.6 49.6 50.8 48.6 100 49.6 0 4 SE 0 30.068 73.4 36 30
5/20/02 9:30 AM 51.7 51.7 51.7 52.7 50.6 100 51.7 0 4 SE 0 30.072 72.9 36 30
5/20/02 10:00 AM -- 53.7 53.7 56 52.4 -- -- 0 5 SE 0 30.062 72.6 36 30
5/20/02 10:30 AM -- 55.2 55.2 57.1 54.1 -- -- 0 6 SSE 0 30.061 73.5 36 30
5/20/02 11:00 AM 55.4 55.4 55.4 56.7 53.5 100 55.4 0 5 SSE 0 30.058 73.6 35 30
5/20/02 11:30 AM 57.1 57.1 57.1 59.6 54.8 100 57.1 0 5 SSE 0 30.047 73.6 34 30
5/20/02 12:00 PM -- 56.1 56.1 58.1 54.4 -- -- 0 4 SSE 0 30.039 73.2 34 30
5/20/02 12:30 PM -- 57.6 57.6 61.8 55.6 -- -- 0 4 SE 0 30.034 72.9 34 30
5/20/02 1:00 PM 57.1 57.1 57.1 59.5 56.2 100 57.1 0 0 --- 0 30.031 72.5 35 30
5/20/02 1:30 PM 57.4 57.4 57.4 59.9 56.3 100 57.4 0 5 SE 0 30.021 72.9 35 30
5/20/02 2:00 PM 57.7 57.7 57.7 59.4 56.8 100 57.7 0 3 SE 0 30.016 73.7 35 30
5/20/02 2:30 PM 58.2 58.2 58.2 61.4 56.7 100 58.2 0 5 SSE 0 30.003 74.1 34 30
5/20/02 3:00 PM -- 56 56 58.8 54.8 -- -- 0 3 SSE 0 30.003 73.8 34 30
5/20/02 3:30 PM 58 58 58 60.1 56.2 100 58 0 7 SSE 0 30.002 73.8 34 30
5/20/02 4:00 PM 58.9 58.9 58.9 60.6 57.5 100 58.9 0 4 SSE 0 29.993 73.4 34 30
5/20/02 4:30 PM 56.7 56.7 56.7 58.1 55.8 100 56.7 0 3 SSE 0 29.993 73.4 34 30
5/20/02 5:00 PM -- 57.7 57.7 58.9 56.3 -- -- 0 0 --- 0 29.99 74.1 36 30
5/20/02 5:30 PM -- 57.2 57.2 58.4 56.1 -- -- 0 4 S 0 29.993 76.2 36 30
5/20/02 6:00 PM 56.6 56.6 56.6 57.4 55.9 100 56.6 0 3 NNE 0 29.991 77.5 36 30
5/20/02 6:30 PM 56.2 56.2 56.2 56.6 55.7 100 56.2 0 1 --- 0 29.996 77.7 35 30
5/20/02 7:00 PM -- 55.1 55.1 55.7 54.4 -- -- 0 0 --- 0 30.005 77.4 35 30
5/20/02 7:30 PM -- 53.5 53.5 54.5 52.7 -- -- 0 4 SSE 0 30.018 77.5 35 30
5/20/02 8:00 PM -- 52.8 52.8 53.1 52.5 -- -- 0 3 SSE 0 30.025 78.5 35 30
5/20/02 8:30 PM -- 52.4 52.4 52.7 51.7 -- -- 0 0 --- 0 30.037 78.4 34 30
5/20/02 9:00 PM -- 51.3 51.3 51.9 50.4 -- -- 0 2 SSE 0 30.044 78.2 33 30
5/20/02 9:30 PM -- 49.9 49.9 50.5 49 -- -- 0 0 --- 0 30.049 77.7 33 30
5/20/02 10:00 PM -- 48.5 48.5 49.1 47.8 -- -- 0 0 --- 0 30.046 77.5 34 30
5/20/02 10:30 PM -- 48.4 48.4 48.8 47.8 -- -- 0 0 --- 0 30.046 78.5 34 30
5/20/02 11:00 PM -- 47.9 47.9 48.5 47.4 -- -- 0 0 --- 0 30.052 78.9 34 30
5/20/02 11:30 PM 47.3 47.3 47.3 48 45.9 100 47.3 0 0 --- 0 30.058 78.7 33 30
5/21/02 12:00 AM 45.2 45.2 45.2 46.1 44.2 100 45.2 0 0 --- 0 30.063 78.1 33 30
5/21/02 12:30 AM 44.3 44.3 44.3 45 43.8 100 44.3 0 0 --- 0 30.062 78.3 33 30
5/21/02 1:00 AM 44 44 44 44.2 43.6 100 44 0 0 --- 0 30.057 78.9 33 30
5/21/02 1:30 AM 43.4 43.4 43.4 43.9 43 100 43.4 0 0 --- 0 30.054 78.8 33 30
5/21/02 2:00 AM 42.4 42.4 42.4 43.2 41.7 100 42.4 0 0 --- 0 30.05 78 33 30
5/21/02 2:30 AM 41.9 41.9 41.9 42.5 41.1 100 41.9 0 0 --- 0 30.053 77.3 33 30
5/21/02 3:00 AM 41.2 41.2 41.2 41.7 40.5 100 41.2 0 0 --- 0 30.048 76.4 33 30
5/21/02 3:30 AM -- 40.9 40.9 41.4 40.2 -- -- 0 0 --- 0 30.057 75.9 33 30
5/21/02 4:00 AM 40.4 40.4 40.4 40.7 40.1 100 40.4 0 0 --- 0 30.058 76.7 33 30
5/21/02 4:30 AM 40 40 40 40.8 39.1 100 40 0 0 --- 0 30.055 77 33 30
5/21/02 5:00 AM 39.6 39.6 39.6 40.1 39.1 100 39.6 0 0 --- 0 30.06 76.7 32 30
5/21/02 5:30 AM 38.6 38.6 38.6 39.4 37.3 100 38.6 0 0 --- 0 30.07 76.1 35 30
5/21/02 6:00 AM 38.5 38.5 38.5 39.1 37.9 100 38.5 0 0 --- 0 30.087 77 34 30
5/21/02 6:30 AM 39.8 39.8 39.8 40.8 38.9 100 39.8 0 0 --- 0 30.091 78 33 30
5/21/02 7:00 AM 41.7 41.7 41.7 42.9 40.8 100 41.7 0 0 --- 0 30.097 79.1 33 30
5/21/02 7:30 AM 44.9 44.9 44.9 46.1 42.9 100 44.9 0 3 SSE 0 30.106 78.9 35 30
5/21/02 8:00 AM -- 46.9 46.9 47.5 46.1 -- -- 0 0 --- 0 30.114 78 34 30
5/21/02 8:30 AM -- 48.1 48.1 48.9 47.4 -- -- 0 5 SSE 0 30.109 77 33 30
5/21/02 9:00 AM -- 49.5 49.5 50.7 48.7 -- -- 0 5 SSE 0 30.112 76.3 33 30
5/21/02 9:30 AM -- 51.1 51.1 52 49.6 -- -- 1 7 SE 0 30.109 75.7 33 30
5/21/02 10:00 AM 53.1 53.1 53.1 54.1 51.8 100 53.1 0 4 SSE 0 30.105 76.2 33 30
5/21/02 10:30 AM 55 55 55 56.5 53.5 100 55 0 4 SSE 0 30.107 76.8 33 30
5/21/02 11:00 AM -- 56.8 56.8 58.6 54.5 -- -- 0 5 SSE 0 30.102 76.9 33 30
5/21/02 11:30 AM -- 57.9 57.9 60.4 55.2 -- -- 0 0 --- 0 30.099 76.5 33 30
5/21/02 12:00 PM -- 59 59 62.6 56.5 -- -- 0 5 SSE 0 30.089 76.1 33 30
5/21/02 12:30 PM -- 57.7 57.7 59.8 56.3 -- -- 0 5 SSE 0 30.081 75.7 33 30
5/21/02 1:00 PM -- 57.9 57.9 60.9 55.9 -- -- 0 3 SSE 0 30.071 75.6 33 30
5/21/02 1:30 PM -- 58.1 58.1 61.7 56.9 -- -- 0 5 SSE 0 30.063 76.4 33 30
5/21/02 2:00 PM -- 60.3 60.3 62.8 56.8 -- -- 0 4 SE 0 30.059 76.8 33 30
5/21/02 2:30 PM -- 60.1 60.1 64.7 57.3 -- -- 0 6 SSE 0 30.055 75.9 33 30
5/21/02 3:00 PM -- 62.5 62.5 64.8 61.1 -- -- 1 6 SSE 0 30.053 75.3 33 30
5/21/02 3:30 PM -- 62.6 62.6 66.1 59.1 -- -- 0 4 SSE 0 30.051 74.9 33 30
5/21/02 4:00 PM -- 59.8 59.8 62.1 58.5 -- -- 0 2 SE 0 30.048 74.5 33 30
5/21/02 4:30 PM -- 60.9 60.9 61.7 58.4 -- -- 0 5 SSE 0 30.042 74.3 33 30
5/21/02 5:00 PM -- 62.1 62.1 63.4 60.6 -- -- 0 5 SSE 0 30.044 74.1 33 30
5/21/02 5:30 PM -- 61.1 61.1 61.8 60.3 -- -- 0 5 SSE 0 30.04 75 35 30
5/21/02 6:00 PM -- 59.6 59.6 61.4 58.7 -- -- 0 3 SSE 0 30.05 75.7 35 30
5/21/02 6:30 PM -- 59 59 59.5 58.5 -- -- 0 0 --- 0 30.059 75.7 34 30
5/21/02 7:00 PM -- 56.7 56.7 58.5 55.4 -- -- 0 8 SSE 0 30.074 75.7 33 30
5/21/02 7:30 PM -- 57.2 57.2 57.8 56.5 -- -- 0 4 SSE 0 30.085 75.6 34 30
5/21/02 8:00 PM -- 56.3 56.3 58.4 54.9 -- -- 1 6 SSE 0 30.095 75.3 34 30
5/21/02 8:30 PM -- 53.8 53.8 54.9 53 -- -- 0 0 --- 0 30.106 74.7 35 30
5/21/02 9:00 PM -- 52.7 52.7 54.1 52.1 -- -- 0 0 --- 0 30.116 74.3 35 30
5/21/02 9:30 PM -- 52.1 52.1 57.2 49.1 -- -- 0 0 --- 0 30.124 74.2 35 30
5/21/02 10:00 PM -- 48.6 48.6 49.3 47.8 -- -- 0 0 --- 0 30.129 73.8 35 30
5/21/02 10:30 PM -- 47.8 47.8 48.4 47.2 -- -- 0 0 --- 0 30.144 74.9 35 30
5/21/02 11:00 PM -- 46.8 46.8 47.6 45.9 -- -- 0 0 --- 0 30.149 76.4 34 30
5/21/02 11:30 PM -- 45.9 45.9 46.3 45.6 -- -- 0 0 --- 0 30.158 76.8 34 30
5/22/02 12:00 AM -- 45.2 45.2 45.7 44.7 -- -- 0 0 --- 0 30.167 76.6 33 30
5/22/02 12:30 AM 44.5 44.5 44.5 45.1 44.1 100 44.5 0 0 --- 0 30.174 76.2 33 30
5/22/02 1:00 AM 43.5 43.5 43.5 44.3 43.1 100 43.5 0 0 --- 0 30.172 76 34 30
5/22/02 1:30 AM 43 43 43 43.5 42.4 100 43 0 0 --- 0 30.173 78.1 33 30
5/22/02 2:00 AM 42.1 42.1 42.1 42.9 41.5 100 42.1 0 0 --- 0 30.173 79.3 33 30
5/22/02 2:30 AM 41.4 41.4 41.4 41.9 40.9 100 41.4 0 0 --- 0 30.175 78.8 33 30
5/22/02 3:00 AM 40.7 40.7 40.7 41 40.2 100 40.7 0 0 --- 0 30.178 78 33 30
5/22/02 3:30 AM 40.8 40.8 40.8 41.3 40.3 100 40.8 0 0 --- 0 30.181 78.6 33 30
5/22/02 4:00 AM 40.3 40.3 40.3 41 39.7 100 40.3 0 0 --- 0 30.18 78.6 33 30
5/22/02 4:30 AM -- 39.7 39.7 40.4 38.8 -- -- 0 0 --- 0 30.184 78.1 32 30
5/22/02 5:00 AM -- 39.2 39.2 40 38.5 -- -- 0 0 --- 0 30.188 77.5 33 30
5/22/02 5:30 AM 38.8 38.8 38.8 39.4 38.2 100 38.8 0 0 --- 0 30.201 78.3 32 30
5/22/02 6:00 AM 38.9 38.9 38.9 39.6 38.3 100 38.9 0 0 --- 0 30.212 78.4 32 30
5/22/02 6:30 AM -- 40.1 40.1 40.8 39 -- -- 0 0 --- 0 30.218 78 33 30
5/22/02 7:00 AM -- 41.8 41.8 43.7 40.7 -- -- 0 0 --- 0 30.222 77.4 35 30
5/22/02 7:30 AM 47.3 47.3 47.3 49.8 43.7 100 47.3 0 0 --- 0 30.223 78 34 30
5/22/02 8:00 AM 50.6 50.6 50.6 51.7 49.7 100 50.6 0 8 SSE 0 30.231 77.8 34 30
5/22/02 8:30 AM 52 52 52 52.7 51.3 100 52 0 6 SSE 0 30.24 77 33 30
5/22/02 9:00 AM 53.8 53.8 53.8 54.9 52.5 100 53.8 0 3 SSE 0 30.241 76.2 33 30
5/22/02 9:30 AM 56 56 56 57.5 54.7 100 56 1 5 SSE 0 30.235 75.5 38 30
5/22/02 10:00 AM 58.3 58.3 58.3 59.3 57.1 100 58.3 0 1 SSE 0 30.23 76.3 38 30
5/22/02 10:30 AM 60.5 60.5 60.5 61.6 59.3 100 60.5 0 4 SSE 0 30.228 76.4 37 30
5/22/02 11:00 AM 62.3 62.3 62.3 63.7 60.8 100 62.3 0 5 SSE 0 30.222 76 37 30
5/22/02 11:30 AM -- 63.6 63.6 65.1 62 -- -- 0 4 SSE 0 30.217 75.5 37 30
5/22/02 12:00 PM -- 65.3 65.3 66.5 64 -- -- 1 5 SSE 0 30.21 75 37 30
5/22/02 12:30 PM -- 66.7 66.7 67.9 64.4 -- -- 0 1 SSE 0 30.201 74.7 37 30
5/22/02 1:00 PM -- 67.8 67.8 69.2 66.6 -- -- 0 5 SE 0 30.194 74.4 37 30
5/22/02 1:30 PM -- 68.7 68.7 70 67.3 -- -- 0 4 SE 0 30.177 74.2 37 30
5/22/02 2:00 PM -- 69.3 69.3 70.6 68.5 -- -- 0 4 SE 0 30.167 74.1 37 30
5/22/02 2:30 PM -- 69.9 69.9 71.9 68.4 -- -- 0 2 SE 0.1 30.158 74.9 38 30
5/22/02 3:00 PM -- 72.5 72.5 73.9 70.8 -- -- 0 4 SE 0.03 30.146 76 37 30
5/22/02 3:30 PM -- 72.7 72.7 74.5 70.3 -- -- 0 4 S 0.03 30.141 76.2 37 30
5/22/02 4:00 PM -- 71.2 71.2 72.8 70.1 -- -- 0 2 S 0 30.13 76.5 36 30
5/22/02 4:30 PM -- 70.9 70.9 72.3 69.5 -- -- 0 0 --- 0 30.119 76.5 36 30
5/22/02 5:00 PM -- 70.1 70.1 71.2 68.5 -- -- 0 4 S 0 30.113 76.4 37 30
5/22/02 5:30 PM -- 69.4 69.4 69.8 68.9 -- -- 0 0 --- 0 30.106 76.4 36 30
5/22/02 6:00 PM -- 68.6 68.6 69.4 67.8 -- -- 0 0 --- 0 30.111 76.3 36 30
5/22/02 6:30 PM -- 67.3 67.3 68 66.7 -- -- 0 0 --- 0 30.108 76.2 36 30
5/22/02 7:00 PM -- 66.2 66.2 66.8 65.7 -- -- 0 0 --- 0 30.109 76.1 36 30
5/22/02 7:30 PM -- 65.1 65.1 65.7 64.3 -- -- 0 0 --- 0 30.116 76 36 30
5/22/02 8:00 PM -- 63.6 63.6 64.4 62.8 -- -- 0 0 --- 0 30.118 75.8 36 30
5/22/02 8:30 PM -- 62.1 62.1 62.8 61.4 -- -- 0 0 --- 0 30.121 75.6 36 30
5/22/02 9:00 PM -- 60.7 60.7 61.4 59.8 -- -- 0 0 --- 0 30.129 75.5 36 30
5/22/02 9:30 PM -- 60.1 60.1 60.3 60 -- -- 0 1 SSW 0 30.136 75.6 38 30
5/22/02 10:00 PM -- 60.6 60.6 62.2 59.7 -- -- 0 0 --- 0 30.138 76.5 37 30
5/22/02 10:30 PM -- 60 60 61.9 58.6 -- -- 0 0 --- 0 30.139 76.8 36 30
5/22/02 11:00 PM -- 58 58 58.6 57.2 -- -- 0 0 --- 0 30.141 76.9 36 30
5/22/02 11:30 PM -- 57 57 57.5 56.7 -- -- 0 0 --- 0 30.143 76.7 36 30
5/23/02 12:00 AM -- 56.7 56.7 57.2 56.2 -- -- 0 0 --- 0 30.139 77.4 36 30
5/23/02 12:30 AM -- 56 56 56.5 55.4 -- -- 0 0 --- 0 30.136 77.7 36 30
5/23/02 1:00 AM -- 55.3 55.3 55.9 54.8 -- -- 0 0 --- 0 30.128 77.6 35 30
5/23/02 1:30 AM -- 54.6 54.6 55 54.2 -- -- 0 0 --- 0 30.124 77.4 35 30
5/23/02 2:00 AM -- 54.2 54.2 54.7 53.6 -- -- 0 0 --- 0 30.12 77 35 30
5/23/02 2:30 AM -- 53.8 53.8 55 53.4 -- -- 0 0 --- 0 30.112 77.4 35 30
5/23/02 3:00 AM -- 53.9 53.9 54.4 53.4 -- -- 0 0 --- 0 30.105 77.7 35 30
5/23/02 3:30 AM -- 53.5 53.5 54.4 52.5 -- -- 0 0 --- 0 30.104 78 35 30
5/23/02 4:00 AM -- 52.7 52.7 53.2 52.3 -- -- 0 0 --- 0 30.103 78.8 34 30
5/23/02 4:30 AM -- 52.5 52.5 53.5 51.7 -- -- 0 0 --- 0 30.104 79 34 30
5/23/02 5:00 AM -- 51.9 51.9 52.4 51.4 -- -- 0 0 --- 0 30.102 79.8 34 30
5/23/02 5:30 AM -- 51.6 51.6 53.1 50.8 -- -- 0 0 --- 0 30.1 79.8 33 30
5/23/02 6:00 AM -- 51.5 51.5 52.5 50.7 -- -- 0 0 --- 0 30.104 79.6 34 30
5/23/02 6:30 AM -- 51.8 51.8 52.3 51.5 -- -- 0 0 --- 0 30.111 78.8 34 30
5/23/02 7:00 AM -- 52.9 52.9 54 52 -- -- 0 0 --- 0 30.111 79.1 36 30
5/23/02 7:30 AM -- 55.4 55.4 56.7 54 -- -- 0 0 --- 0 30.119 79.5 35 30
5/23/02 8:00 AM -- 57.7 57.7 58.5 56.6 -- -- 0 0 --- 0 30.119 79.6 35 30
5/23/02 8:30 AM -- 59.4 59.4 60.4 58.5 -- -- 0 0 --- 0 30.116 79.1 35 30
5/23/02 9:00 AM -- 61.4 61.4 62.6 60.3 -- -- 0 0 --- 0 30.112 78.1 35 30
5/23/02 9:30 AM -- 63.8 63.8 65.7 62.3 -- -- 0 0 --- 0 30.1 77.2 36 30
5/23/02 10:00 AM -- 67 67 68.2 65.7 -- -- 0 6 E 0 30.091 77.5 36 30
5/23/02 10:30 AM -- 69.4 69.4 71 67.7 -- -- 0 1 SSE 0 30.082 77.4 36 30
5/23/02 11:00 AM -- 71 71 72.7 69.2 -- -- 0 1 --- 0 30.069 77.1 36 30
5/23/02 11:30 AM -- 72.8 72.8 74.1 71.7 -- -- 0 0 --- 0 30.056 77.4 37 30
5/23/02 12:00 PM -- 74.2 74.2 75.2 73.1 -- -- 0 1 SSE 0 30.042 78.2 36 30
5/23/02 12:30 PM -- 75.6 75.6 76.6 73.9 -- -- 0 0 --- 0 30.028 78.2 36 30
5/23/02 1:00 PM -- 76.8 76.8 77.9 75.6 -- -- 0 0 --- 0 30.012 77.2 37 30
5/23/02 1:30 PM -- 76.8 76.8 77.7 75.8 -- -- 0 4 SSE 0 30 76.7 37 30
5/23/02 2:00 PM -- 77.8 77.8 78.4 77.1 -- -- 0 2 SSE 0 29.985 76.3 37 30
5/23/02 2:30 PM -- 77.7 77.7 78.5 76 -- -- 0 0 --- 0 29.967 76.3 37 30
5/23/02 3:00 PM -- 78.2 78.2 78.8 77.2 -- -- 0 3 SSE 0 29.948 76.1 37 30
5/23/02 3:30 PM -- 78.1 78.1 78.6 77.6 -- -- 0 2 ENE 0 29.93 75.9 37 30
5/23/02 4:00 PM -- 77.7 77.7 78.4 76.8 -- -- 0 0 --- 0 29.92 76.1 38 30
5/23/02 4:30 PM -- 77 77 77.7 76.2 -- -- 0 0 --- 0 29.906 76.1 38 30
5/23/02 5:00 PM -- 75.6 75.6 76.6 74.9 -- -- 0 0 --- 0 29.9 76.4 38 30
5/23/02 5:30 PM -- 74.5 74.5 75.1 73.8 -- -- 0 0 --- 0 29.897 76.5 38 30
5/23/02 6:00 PM -- 73.6 73.6 73.9 73.2 -- -- 0 0 --- 0 29.889 76.8 40 30
5/23/02 6:30 PM -- 72.6 72.6 73.3 72.2 -- -- 0 1 --- 0 29.882 77.1 40 30
5/23/02 7:00 PM -- 71.6 71.6 72.3 70.8 -- -- 0 0 --- 0 29.874 77.3 40 30
5/23/02 7:30 PM -- 70.4 70.4 71 69.5 -- -- 0 0 --- 0 29.869 77.4 40 30
5/23/02 8:00 PM -- 68.4 68.4 69.5 67.4 -- -- 0 0 --- 0 29.857 77.5 40 30
5/23/02 8:30 PM -- 66.7 66.7 67.4 65.8 -- -- 0 0 --- 0 29.852 77.5 40 30
5/23/02 9:00 PM -- 65.7 65.7 66.2 65 -- -- 0 0 --- 0 29.858 77.7 40 30
5/23/02 9:30 PM -- 64.7 64.7 65 64.3 -- -- 0 0 --- 0 29.858 77.9 40 30
5/23/02 10:00 PM -- 63.6 63.6 64.4 62.9 -- -- 0 0 --- 0 29.855 78 41 30
5/23/02 10:30 PM -- 62.7 62.7 63.2 61.9 -- -- 0 0 --- 0 29.861 77.9 40 30
5/23/02 11:00 PM -- 61.7 61.7 62.3 61.1 -- -- 0 0 --- 0 29.861 77.7 40 30
5/23/02 11:30 PM -- 60.8 60.8 61.5 60 -- -- 0 0 --- 0 29.871 77.5 40 30
5/24/02 12:00 AM -- 59.9 59.9 60.6 59 -- -- 0 0 --- 0 29.87 77.2 40 30
5/24/02 12:30 AM -- 58.9 58.9 59.6 58.6 -- -- 0 0 --- 0 29.852 76.5 40 30
5/24/02 1:00 AM -- 58.1 58.1 58.7 57.7 -- -- 0 0 --- 0 29.844 76.3 40 30
5/24/02 1:30 AM -- 57.7 57.7 58.2 57.3 -- -- 0 0 --- 0 29.833 76.3 42 30
5/24/02 2:00 AM -- 57.8 57.8 58.6 57.3 -- -- 0 0 --- 0 29.834 77.2 43 30
5/24/02 2:30 AM -- 57.7 57.7 58.2 57.1 -- -- 0 0 --- 0 29.829 78 42 30
5/24/02 3:00 AM -- 57.1 57.1 57.7 56.8 -- -- 0 0 --- 0 29.829 78 41 30
5/24/02 3:30 AM -- 57.2 57.2 58 56.8 -- -- 0 0 --- 0 29.821 77.7 40 30
5/24/02 4:00 AM -- 57.2 57.2 57.8 56.8 -- -- 0 0 --- 0 29.817 77.4 40 30
5/24/02 4:30 AM -- 56.8 56.8 57.1 56.5 -- -- 0 0 --- 0 29.806 76.8 40 30
5/24/02 5:00 AM -- 57 57 57.2 56.6 -- -- 0 0 --- 0 29.793 77.1 40 30
5/24/02 5:30 AM -- 57 57 57.2 56.8 -- -- 0 0 --- 0 29.797 78 40 30
5/24/02 6:00 AM -- 57.5 57.5 60.2 56.7 -- -- 0 0 --- 0 29.795 79.2 41 30
5/24/02 6:30 AM -- 58.5 58.5 60.3 57.2 -- -- 0 0 --- 0 29.791 79.6 39 30
5/24/02 7:00 AM -- 58.1 58.1 59 57.4 -- -- 0 0 --- 0 29.789 79.2 40 30
5/24/02 7:30 AM -- 59.8 59.8 61 59 -- -- 0 0 --- 0 29.79 78.7 41 30
5/24/02 8:00 AM -- 62.3 62.3 63.4 61 -- -- 0 0 --- 0 29.787 79.2 40 30
5/24/02 8:30 AM -- 64.4 64.4 65.3 63.4 -- -- 0 0 --- 0 29.781 79.5 40 30
5/24/02 9:00 AM -- 65.8 65.8 66.8 65 -- -- 0 3 N 0 29.776 79.6 40 30
5/24/02 9:30 AM -- 67.9 67.9 69.1 66.5 -- -- 0 2 NNE 0 29.763 79.3 40 30
5/24/02 10:00 AM -- 70 70 71 69 -- -- 0 0 --- 0 29.756 79 40 30
5/24/02 10:30 AM -- 72.6 72.6 74.2 71 -- -- 0 3 NNE 0 29.755 78.7 40 30
5/24/02 11:00 AM -- 75.2 75.2 76.3 74.2 -- -- 0 0 --- 0 29.742 78.5 40 30
5/24/02 11:30 AM -- 77.3 77.3 78.9 75.8 -- -- 0 0 --- 0 29.719 78.5 40 30
5/24/02 12:00 PM -- 79.4 79.4 80.5 78.5 -- -- 0 0 --- 0 29.719 78.8 39 30
5/24/02 12:30 PM -- 81.4 81.4 82.5 80.5 -- -- 0 0 --- 0 29.707 78.7 40 30
5/24/02 1:00 PM -- 82.8 82.8 83.6 81.5 -- -- 0 0 --- 0 29.695 78.2 40 30
5/24/02 1:30 PM -- 84.2 84.2 85.2 83.2 -- -- 0 1 --- 0 29.683 77.7 40 30
5/24/02 2:00 PM -- 84.8 84.8 85.2 84.3 -- -- 0 3 NNE 0 29.672 77.6 40 30
5/24/02 2:30 PM -- 85.2 85.2 85.5 84.5 -- -- 0 1 --- 0 29.66 77.7 40 30
5/24/02 3:00 PM -- 85.4 85.4 85.8 85.1 -- -- 0 0 --- 0 29.646 77.9 40 30
5/24/02 3:30 PM -- 85.4 85.4 85.9 84.7 -- -- 0 6 NNE 0 29.649 78 40 30
5/24/02 4:00 PM -- 85.1 85.1 85.7 84.8 -- -- 0 4 E 0 29.64 78 41 30
5/24/02 4:30 PM -- 84.7 84.7 85.3 83.8 -- -- 0 5 NE 0 29.636 78.1 41 30
5/24/02 5:00 PM -- 83.5 83.5 84.1 82.8 -- -- 0 6 SE 0 29.632 78.4 42 30
5/24/02 5:30 PM -- 82.7 82.7 83.1 81.8 -- -- 0 4 NNW 0 29.637 78.7 42 30
5/24/02 6:00 PM -- 81.4 81.4 82 81 -- -- 0 4 SSE 0 29.64 78.9 43 30
5/24/02 6:30 PM -- 80.4 80.4 81.2 79.6 -- -- 0 4 NNW 0 29.654 79.1 43 30
5/24/02 7:00 PM -- 79.9 79.9 80.6 79.3 -- -- 0 3 NNW 0 29.652 79.3 43 30
5/24/02 7:30 PM -- 78.6 78.6 79.3 77.6 -- -- 0 1 NNW 0 29.669 79.5 43 30
5/24/02 8:00 PM -- 77.2 77.2 77.7 76.7 -- -- 0 0 --- 0 29.674 79.4 43 30
5/24/02 8:30 PM -- 76.3 76.3 76.7 75.8 -- -- 0 0 --- 0 29.687 79.2 43 30
5/24/02 9:00 PM -- 75.9 75.9 76.3 75.6 -- -- 0 5 SSE 0 29.724 79 43 30
5/24/02 9:30 PM -- 75 75 75.6 74.7 -- -- 0 0 --- 0 29.739 79 44 30
5/24/02 10:00 PM -- 74 74 74.7 73.2 -- -- 0 7 SSE 0 29.754 78.9 44 30
5/24/02 10:30 PM -- 72.6 72.6 73.3 72.1 -- -- 0 7 SSE 0 29.763 78.8 45 30
5/24/02 11:00 PM -- 71.5 71.5 72.1 70.8 -- -- 1 7 SSE 0 29.776 79 45 30
5/24/02 11:30 PM -- 70.2 70.2 70.9 69.6 -- -- 0 6 SE 0 29.79 79.1 46 30
5/25/02 12:00 AM -- 69.5 69.5 69.8 69.1 -- -- 0 5 SSE 0 29.805 79.2 46 30
5/25/02 12:30 AM -- 68.9 68.9 69.7 68.1 -- -- 0 0 --- 0 29.814 79.3 45 30
5/25/02 1:00 AM -- 68.1 68.1 68.7 67.7 -- -- 0 0 --- 0 29.822 79.4 45 30
5/25/02 1:30 AM -- 67.6 67.6 68.2 67 -- -- 0 0 --- 0 29.834 79.5 45 30
5/25/02 2:00 AM -- 66.2 66.2 67.3 65.2 -- -- 0 0 --- 0 29.84 79.6 44 30
5/25/02 2:30 AM -- 65.3 65.3 65.8 64.7 -- -- 0 3 SSE 0 29.851 79.3 45 30
5/25/02 3:00 AM -- 64 64 64.9 63.2 -- -- 1 7 SSE 0 29.861 79.5 45 30
5/25/02 3:30 AM -- 62.7 62.7 64.1 61.7 -- -- 1 6 SSE 0 29.867 80.4 44 30
5/25/02 4:00 AM -- 61.3 61.3 61.8 60.7 -- -- 0 5 SSE 0 29.88 80.8 43 30
5/25/02 4:30 AM -- 61.3 61.3 61.9 60.9 -- -- 0 5 SSE 0 29.886 80.4 42 30
5/25/02 5:00 AM -- 60.4 60.4 61.2 59.8 -- -- 0 5 SSE 0 29.903 79.9 42 30
5/25/02 5:30 AM -- 59.4 59.4 60.4 58.4 -- -- 0 4 SSE 0 29.92 79.5 42 30
5/25/02 6:00 AM -- 59.4 59.4 59.8 58.8 -- -- 0 0 --- 0 29.929 79.2 42 30
5/25/02 6:30 AM -- 59.7 59.7 60.3 59 -- -- 0 0 --- 0 29.952 79 42 30
5/25/02 7:00 AM -- 60.3 60.3 61 59.8 -- -- 0 0 --- 0 29.981 78.6 42 30
5/25/02 7:30 AM -- 59.5 59.5 60.4 58.9 -- -- 0 0 --- 0 29.996 78.4 41 30
5/25/02 8:00 AM -- 60.1 60.1 61.4 59.3 -- -- 0 0 --- 0 30.015 78.1 41 30
5/25/02 8:30 AM -- 60.8 60.8 62.4 60.1 -- -- 0 0 --- 0 30.023 77.9 42 30
5/25/02 9:00 AM -- 63.4 63.4 64.9 62 -- -- 0 1 --- 0 30.047 78 41 30
5/25/02 9:30 AM -- 64.1 64.1 65.7 63 -- -- 0 0 --- 0 30.046 77.7 41 30
5/25/02 10:00 AM -- 65.1 65.1 66.6 64.1 -- -- 0 0 --- 0 30.054 77.8 41 30
5/25/02 10:30 AM -- 67.8 67.8 70 66 -- -- 0 0 --- 0 30.045 77.5 40 30
5/25/02 11:00 AM -- 70.6 70.6 72 69.3 -- -- 0 1 --- 0 30.04 77.2 41 30
5/25/02 11:30 AM -- 71.5 71.5 72.8 69.2 -- -- 0 0 --- 0 30.04 77.1 42 30
5/25/02 12:00 PM -- 71.6 71.6 72.8 70.6 -- -- 0 4 SSE 0 30.029 77 42 30
5/25/02 12:30 PM -- 74.3 74.3 75.7 71.4 -- -- 0 0 --- 0 30.021 76.8 42 30
5/25/02 1:00 PM -- 75.5 75.5 76.5 74 -- -- 0 3 SSE 0 30.016 76.6 43 30
5/25/02 1:30 PM -- 75.2 75.2 76.5 74.1 -- -- 0 0 --- 0 30.01 76.6 44 30
5/25/02 2:00 PM -- 75.5 75.5 76.7 74.2 -- -- 0 4 SSE 0 30.001 76.6 45 30
5/25/02 2:30 PM -- 76 76 78 74.3 -- -- 0 2 SSE 0 29.996 76.5 45 30
5/25/02 3:00 PM -- 77.2 77.2 78.5 75.2 -- -- 0 0 --- 0 29.996 76.6 45 30
5/25/02 3:30 PM -- 77 77 78.1 75.4 -- -- 0 0 --- 0 29.99 76.8 44 30
5/25/02 4:00 PM -- 75.9 75.9 78.1 74.3 -- -- 0 2 SSE 0 29.998 76.8 43 30
5/25/02 4:30 PM -- 74.2 74.2 74.7 73.9 -- -- 0 5 SE 0 29.995 76.8 43 30
5/25/02 5:00 PM -- 73 73 74.6 71.8 -- -- 0 3 NNE 0 29.996 77 43 30
5/25/02 5:30 PM -- 71.5 71.5 73 70.5 -- -- 0 3 NNE 0 29.995 77.4 44 30
5/25/02 6:00 PM -- 69.9 69.9 70.6 68.8 -- -- 0 5 NNE 0 29.998 77.5 45 30
5/25/02 6:30 PM -- 68.5 68.5 69.3 67.9 -- -- 0 4 N 0 29.999 77.6 44 30
5/25/02 7:00 PM -- 67.4 67.4 68.3 66.5 -- -- 0 4 NNW 0 30.016 77.5 44 30
5/25/02 7:30 PM -- 66 66 67 65.2 -- -- 0 3 NNE 0 30.017 77.4 43 30
5/25/02 8:00 PM -- 64.9 64.9 65.4 64.5 -- -- 0 0 --- 0 30.035 77.3 42 30
5/25/02 8:30 PM -- 64.5 64.5 65 64.1 -- -- 0 2 NNE 0 30.031 77.4 44 30
5/25/02 9:00 PM -- 64 64 64.8 63.4 -- -- 0 2 N 0 30.036 77.5 43 30
5/25/02 9:30 PM -- 63.2 63.2 63.5 62.8 -- -- 0 0 --- 0 30.057 77.5 43 30
5/25/02 10:00 PM -- 62.4 62.4 63.1 61.8 -- -- 0 1 --- 0 30.067 77.2 43 30
5/25/02 10:30 PM -- 61.8 61.8 62.4 61.4 -- -- 0 0 --- 0 30.065 76.8 43 30
5/25/02 11:00 PM -- 61.7 61.7 62 61.4 -- -- 0 0 --- 0 30.052 76.5 43 30
5/25/02 11:30 PM -- 61.6 61.6 62 61.2 -- -- 0 0 --- 0 30.053 76.4 42 30
5/26/02 12:00 AM -- 61.6 61.6 61.9 61.4 -- -- 0 0 --- 0 30.055 76 43 30
5/26/02 12:30 AM -- 61.6 61.6 61.8 61.3 -- -- 0 0 --- 0 30.045 75.7 43 30
5/26/02 1:00 AM -- 61.5 61.5 61.9 61.2 -- -- 0 0 --- 0 30.039 75.7 43 30
5/26/02 1:30 AM -- 61.5 61.5 61.9 61.1 -- -- 0 0 --- 0 30.028 76.1 45 30
5/26/02 2:00 AM -- 61.6 61.6 62.1 61.1 -- -- 0 0 --- 0 30.017 77 44 30
5/26/02 2:30 AM -- 61.8 61.8 62 61.4 -- -- 0 0 --- 0 30.011 77.6 44 30
5/26/02 3:00 AM -- 61.7 61.7 62.2 61.4 -- -- 0 0 --- 0 30.006 77.7 43 30
5/26/02 3:30 AM -- 61.4 61.4 61.9 60.9 -- -- 0 0 --- 0 30.005 77.7 43 30
5/26/02 4:00 AM -- 61.4 61.4 61.8 61 -- -- 0 1 --- 0 30.005 77.6 42 30
5/26/02 4:30 AM -- 61 61 61.3 60.7 -- -- 0 0 --- 0 29.991 77.3 42 30
5/26/02 5:00 AM -- 61.1 61.1 61.7 60.5 -- -- 0 0 --- 0 30.017 77.2 42 30
5/26/02 5:30 AM -- 61.4 61.4 62 60.9 -- -- 0 0 --- 0 30.024 77.1 43 30
5/26/02 6:00 AM -- 61.6 61.6 62.2 61.3 -- -- 0 0 --- 0 30.027 78.1 43 30
5/26/02 6:30 AM -- 61.8 61.8 62.7 61.5 -- -- 0 0 --- 0 30.021 80.2 43 30
5/26/02 7:00 AM -- 62 62 62.4 61.7 -- -- 0 0 --- 0 30.012 81.2 42 30
5/26/02 7:30 AM -- 62.5 62.5 62.8 61.8 -- -- 0 0 --- 0 30.006 80.9 42 30
5/26/02 8:00 AM -- 62.6 62.6 63 62.4 -- -- 0 0 --- 0 30.003 80.4 41 30
5/26/02 8:30 AM -- 63.2 63.2 63.8 62.8 -- -- 0 0 --- 0 30.004 80 41 30
5/26/02 9:00 AM -- 63.9 63.9 64.7 63 -- -- 0 0 --- 0 30.005 79.6 41 30
5/26/02 9:30 AM -- 64.1 64.1 64.4 63.5 -- -- 0 0 --- 0 30.004 79.2 42 30
5/26/02 10:00 AM -- 63.8 63.8 64.5 63.3 -- -- 0 0 --- 0 29.999 79 42 30
5/26/02 10:30 AM -- 64.4 64.4 64.8 64.1 -- -- 0 0 --- 0 30.006 78.8 44 30
5/26/02 11:00 AM -- 65.6 65.6 66.2 64.7 -- -- 0 0 --- 0 30.005 78.3 44 30
5/26/02 11:30 AM -- 67.1 67.1 67.8 66.1 -- -- 0 0 --- 0 30.012 78.4 45 30
5/26/02 12:00 PM -- 66.8 66.8 67.6 66.2 -- -- 0 0 --- 0 30.008 78.5 45 30
5/26/02 12:30 PM -- 68.4 68.4 69.8 66.4 -- -- 0 0 --- 0 30.008 78 45 30
5/26/02 1:00 PM -- 69.5 69.5 70.6 68.5 -- -- 0 0 --- 0 30.007 77.5 45 30
5/26/02 1:30 PM -- 70.9 70.9 74.5 69.4 -- -- 0 0 --- 0 29.998 77.2 46 30
5/26/02 2:00 PM -- 72.7 72.7 74.8 70.6 -- -- 0 0 --- 0 29.989 77 46 30
5/26/02 2:30 PM -- 72.4 72.4 73.2 71.5 -- -- 0 0 --- 0 29.992 76.9 46 30
5/26/02 3:00 PM -- 72.7 72.7 73.3 71.8 -- -- 0 0 --- 0 29.985 76.8 46 30
5/26/02 3:30 PM -- 72.2 72.2 73.3 70.8 -- -- 0 0 --- 0 29.984 76.7 46 30
5/26/02 4:00 PM -- 72.4 72.4 73.1 71.6 -- -- 0 0 --- 0 29.979 76.8 46 30
5/26/02 4:30 PM -- 72.8 72.8 73.8 71.8 -- -- 0 0 --- 0 29.97 76.5 47 30
5/26/02 5:00 PM -- 74.2 74.2 74.8 73.2 -- -- 0 3 ESE 0 29.965 76.6 48 30
5/26/02 5:30 PM -- 73.9 73.9 74.3 73.7 -- -- 0 0 --- 0 29.96 77.1 50 30
5/26/02 6:00 PM -- 73.6 73.6 73.9 73.1 -- -- 0 0 --- 0 29.953 77.6 51 30
5/26/02 6:30 PM -- 72.7 72.7 73.5 71.9 -- -- 0 0 --- 0 29.962 77.9 52 30
5/26/02 7:00 PM -- 71.5 71.5 72 71 -- -- 0 0 --- 0 29.973 78.2 52 30
5/26/02 7:30 PM -- 70.4 70.4 71 69.8 -- -- 0 0 --- 0 29.969 78.6 51 30
5/26/02 8:00 PM -- 69.2 69.2 69.8 68.7 -- -- 0 0 --- 0 29.974 78.9 50 30
5/26/02 8:30 PM -- 68 68 68.7 67.5 -- -- 0 0 --- 0 29.978 79.2 51 30
5/26/02 9:00 PM -- 67.4 67.4 68.1 66.7 -- -- 0 0 --- 0 29.99 79.3 52 30
5/26/02 9:30 PM -- 66.9 66.9 67.6 66.5 -- -- 0 0 --- 0 30.002 79.3 51 30
5/26/02 10:00 PM -- 66.1 66.1 66.5 65.6 -- -- 0 0 --- 0 30.014 79 51 30
5/26/02 10:30 PM -- 65.7 65.7 66.1 65.2 -- -- 0 0 --- 0 30.012 79.2 51 30
5/26/02 11:00 PM -- 64.8 64.8 65.3 64.3 -- -- 0 0 --- 0 30.012 79.3 51 30
5/26/02 11:30 PM -- 64.3 64.3 64.6 64 -- -- 0 0 --- 0 30.004 79.2 51 30
5/27/02 12:00 AM -- 64.1 64.1 64.3 63.9 -- -- 0 0 --- 0 30.017 79 51 30
5/27/02 12:30 AM -- 64 64 64.3 63.8 -- -- 0 0 --- 0 30.034 78.9 51 30
5/27/02 1:00 AM -- 64.2 64.2 64.8 63.9 -- -- 0 0 --- 0 30.036 78.9 50 30
5/27/02 1:30 AM -- 64 64 64.4 63.6 -- -- 0 0 --- 0 30.02 79.4 50 30
5/27/02 2:00 AM -- 63.7 63.7 64 63.5 -- -- 0 0 --- 0 30.019 79.2 49 30
5/27/02 2:30 AM -- 63.8 63.8 64.1 63.5 -- -- 0 0 --- 0 30.014 79.2 50 30
5/27/02 3:00 AM -- 63.8 63.8 64.3 63.5 -- -- 0 0 --- 0 30.015 80.6 49 30
5/27/02 3:30 AM -- 64.1 64.1 64.5 63.9 -- -- 0 0 --- 0 30.013 81.2 48 30
5/27/02 4:00 AM -- 64 64 64.2 63.8 -- -- 0 0 --- 0 30.008 80.6 48 30
5/27/02 4:30 AM -- 64.2 64.2 64.7 63.9 -- -- 0 0 --- 0 30.011 80.3 48 30
5/27/02 5:00 AM -- 64.2 64.2 64.6 63.9 -- -- 0 0 --- 0 30.028 79.9 48 30
5/27/02 5:30 AM -- 64 64 64.2 63.6 -- -- 0 0 --- 0 30.024 79.7 48 30
5/27/02 6:00 AM -- 63.9 63.9 64.4 63.7 -- -- 0 0 --- 0 30.025 79.4 48 30
5/27/02 6:30 AM -- 64.4 64.4 64.9 63.9 -- -- 0 0 --- 0 30.026 79.3 49 30
5/27/02 7:00 AM -- 65.5 65.5 66.1 64.8 -- -- 0 0 --- 0 30.032 79.1 49 30
5/27/02 7:30 AM -- 65.6 65.6 65.8 65.3 -- -- 0 0 --- 0 30.039 77.9 49 30
5/27/02 8:00 AM -- 65.9 65.9 66.3 65.5 -- -- 0 0 --- 0 30.045 76.8 50 30
5/27/02 8:30 AM -- 67.1 67.1 67.8 66 -- -- 0 0 --- 0 30.052 76.1 50 30
5/27/02 9:00 AM -- 68 68 69.6 66.6 -- -- 0 0 --- 0 30.052 75.7 51 30
5/27/02 9:30 AM -- 69.7 69.7 70.8 68.5 -- -- 0 0 --- 0 30.053 76 51 30
5/27/02 10:00 AM -- 70.2 70.2 70.8 69.4 -- -- 0 0 --- 0 30.059 75.8 51 30
5/27/02 10:30 AM -- 72.3 72.3 73.2 70.1 -- -- 0 0 --- 0 30.061 75.8 51 30
5/27/02 11:00 AM -- 73.8 73.8 74.7 73 -- -- 0 0 --- 0 30.046 76.3 52 30
5/27/02 11:30 AM -- 75.3 75.3 76.4 74 -- -- 0 4 NE 0 30.044 76.6 52 30
5/27/02 12:00 PM -- 76.5 76.5 77.9 75 -- -- 0 1 --- 0 30.032 77 52 30
5/27/02 12:30 PM -- 78.3 78.3 79 77.3 -- -- 0 4 NNE 0 30.026 76.9 53 30
5/27/02 1:00 PM -- 79.3 79.3 80 77.7 -- -- 0 0 --- 0 30.022 76.9 52 30
5/27/02 1:30 PM -- 80.4 80.4 81.2 79.7 -- -- 0 0 --- 0 30.011 77.2 53 30
5/27/02 2:00 PM -- 80.7 80.7 81.9 79.5 -- -- 0 0 --- 0 30.002 77.6 55 30
5/27/02 2:30 PM -- 80.3 80.3 81.7 79.2 -- -- 0 0 --- 0 29.995 78.2 55 30
5/27/02 3:00 PM -- 81.8 81.8 82.7 80.7 -- -- 0 0 --- 0 29.988 78.7 55 30
5/27/02 3:30 PM -- 82.2 82.2 83.7 80.7 -- -- 0 0 --- 0 29.986 78.9 56 30
5/27/02 4:00 PM -- 80.2 80.2 81.5 79.3 -- -- 0 5 N 0 29.986 78.9 55 30
5/27/02 4:30 PM -- 79.4 79.4 80.1 78.4 -- -- 0 3 N 0 29.989 79.3 57 30
5/27/02 5:00 PM -- 78.3 78.3 78.9 78 -- -- 0 1 --- 0 29.975 79.6 56 30
5/27/02 5:30 PM -- 77.8 77.8 79.1 76.7 -- -- 0 1 N 0 29.968 79.5 55 30
5/27/02 6:00 PM -- 77.1 77.1 77.5 76.7 -- -- 0 0 --- 0 29.97 79.2 54 30
5/27/02 6:30 PM -- 76.6 76.6 77.6 75.5 -- -- 0 1 N 0 29.965 79 53 30
5/27/02 7:00 PM -- 74.7 74.7 75.5 74.2 -- -- 0 0 --- 0 29.967 78.4 50 30
5/27/02 7:30 PM -- 73.9 73.9 74.4 73.1 -- -- 0 0 --- 0 29.978 78.1 47 30
5/27/02 8:00 PM -- 72.5 72.5 73.1 72.1 -- -- 0 0 --- 0 29.979 77.6 46 30
5/27/02 8:30 PM -- 71.5 71.5 72.3 70.9 -- -- 0 0 --- 0 29.982 77.5 45 30
5/27/02 9:00 PM -- 70.9 70.9 71 70.5 -- -- 0 0 --- 0 29.984 77.6 47 30
5/27/02 9:30 PM -- 70.4 70.4 70.6 70.2 -- -- 0 0 --- 0 29.994 77.8 49 30
5/27/02 10:00 PM -- 70 70 70.3 69.7 -- -- 0 0 --- 0 30.008 78.1 49 30
5/27/02 10:30 PM -- 69.7 69.7 69.8 69.4 -- -- 0 0 --- 0 30.008 78.6 49 30
5/27/02 11:00 PM -- 69.2 69.2 69.5 68.9 -- -- 0 0 --- 0 30 78.8 50 30
5/27/02 11:30 PM -- 68.9 68.9 69.2 68.5 -- -- 0 0 --- 0 29.999 78.5 51 30
5/28/02 12:00 AM -- 68.2 68.2 68.6 67.7 -- -- 0 0 --- 0 30 78.4 51 30
5/28/02 12:30 AM -- 67.8 67.8 67.9 67.7 -- -- 0 0 --- 0 30.003 78.6 51 30
5/28/02 1:00 AM -- 67.4 67.4 67.8 67.1 -- -- 0 0 --- 0 30.005 79.8 50 30
5/28/02 1:30 AM -- 66.9 66.9 67.1 66.7 -- -- 0 0 --- 0 29.996 80.6 50 30
5/28/02 2:00 AM -- 66.5 66.5 66.9 66.3 -- -- 0 0 --- 0 30.004 80.5 50 30
5/28/02 2:30 AM -- 66.3 66.3 66.6 66.1 -- -- 0 0 --- 0 30.001 80.2 50 30
5/28/02 3:00 AM -- 66.3 66.3 66.5 66.1 -- -- 0 0 --- 0 30.008 79.8 50 30
5/28/02 3:30 AM -- 66.4 66.4 66.5 66.2 -- -- 0 0 --- 0 30 79.7 50 30
5/28/02 4:00 AM -- 66.1 66.1 66.4 65.7 -- -- 0 0 --- 0 29.994 79.5 51 30
5/28/02 4:30 AM -- 65.7 65.7 66.1 65.4 -- -- 0 0 --- 0 30.008 79.5 51 30
5/28/02 5:00 AM -- 65.3 65.3 65.6 65 -- -- 0 0 --- 0 30.006 79.3 51 30
5/28/02 5:30 AM -- 65.3 65.3 65.7 65.1 -- -- 0 0 --- 0 30.006 79.1 51 30
5/28/02 6:00 AM -- 65.4 65.4 65.7 65.2 -- -- 0 0 --- 0 30.02 78.9 51 30
5/28/02 6:30 AM -- 65.6 65.6 66 65.3 -- -- 0 0 --- 0 30.029 78.9 51 30
5/28/02 7:00 AM -- 65.9 65.9 66.6 65.7 -- -- 0 0 --- 0 30.035 78.8 51 30
5/28/02 7:30 AM -- 67.1 67.1 67.7 66.6 -- -- 0 0 --- 0 30.035 78.8 51 30
5/28/02 8:00 AM -- 68.6 68.6 69.4 67.7 -- -- 0 0 --- 0 30.046 78.2 51 30
5/28/02 8:30 AM -- 69.6 69.6 70.2 69.2 -- -- 0 0 --- 0 30.052 77 51 30
5/28/02 9:00 AM -- 70.8 70.8 71.7 70.2 -- -- 0 0 --- 0 30.046 76.3 52 30
5/28/02 9:30 AM -- 72.3 72.3 73.2 71.3 -- -- 0 0 --- 0 30.037 76.1 53 30
5/28/02 10:00 AM -- 73.6 73.6 74.3 72.8 -- -- 0 0 --- 0 30.034 76 49 30
5/28/02 10:30 AM -- 75.2 75.2 76.5 73.7 -- -- 0 0 --- 0 30.035 75.4 46 30
5/28/02 11:00 AM -- 76.8 76.8 77.2 76.4 -- -- 0 0 --- 0 30.022 75 48 30
5/28/02 11:30 AM -- 77.6 77.6 78 76.9 -- -- 0 0 --- 0 30.026 74.6 49 30
5/28/02 12:00 PM -- 77.7 77.7 78.4 77.3 -- -- 0 0 --- 0 30.017 74.5 48 30
5/28/02 12:30 PM -- 78.6 78.6 80.7 77.6 -- -- 0 0 --- 0 30.018 74.4 49 30
5/28/02 1:00 PM -- 80.8 80.8 81.6 79.3 -- -- 0 0 --- 0 30.009 74.4 49 30
5/28/02 1:30 PM -- 81.8 81.8 82.7 80.7 -- -- 0 2 N 0 30.007 74.2 47 30
5/28/02 2:00 PM -- 81.5 81.5 82.6 80.2 -- -- 0 4 N 0 29.999 73.9 45 30
5/28/02 2:30 PM -- 80.1 80.1 81.9 78.6 -- -- 0 1 --- 0 30.002 73.6 44 30
5/28/02 3:00 PM -- 78.6 78.6 79.4 78.2 -- -- 0 0 --- 0 29.994 73.5 48 30
5/28/02 3:30 PM -- 80.3 80.3 81 79.3 -- -- 0 1 --- 0 29.988 73.9 46 30
5/28/02 4:00 PM -- 78.7 78.7 79.7 78 -- -- 0 0 --- 0 29.979 73.6 48 30
5/28/02 4:30 PM -- 77.9 77.9 78.7 77.4 -- -- 0 4 N 0 29.975 73.6 47 30
5/28/02 5:00 PM -- 77.6 77.6 77.8 77.3 -- -- 0 1 --- 0 29.979 74.1 45 30
5/28/02 5:30 PM -- 76.5 76.5 77.3 76.3 -- -- 0 1 --- 0 29.97 74 48 30
5/28/02 6:00 PM -- 76.1 76.1 76.4 75.6 -- -- 0 1 N 0 29.985 73.9 47 30
5/28/02 6:30 PM -- 74.7 74.7 75.6 74 -- -- 0 0 --- 0 29.993 73.7 47 30
5/28/02 7:00 PM -- 73.5 73.5 74 73 -- -- 0 0 --- 0 29.996 73.5 48 30
5/28/02 7:30 PM -- 72.5 72.5 73 72 -- -- 0 0 --- 0 30.003 73.3 49 30
5/28/02 8:00 PM -- 71.7 71.7 72 71.3 -- -- 0 0 --- 0 30.01 73.2 49 30
5/28/02 8:30 PM -- 70.9 70.9 71.3 70 -- -- 0 0 --- 0 30.005 73.2 49 30
5/28/02 9:00 PM -- 69.6 69.6 70 69.4 -- -- 0 0 --- 0 30.017 73.7 50 30
5/28/02 9:30 PM -- 69.1 69.1 69.4 68.9 -- -- 0 0 --- 0 30.022 74 51 30
5/28/02 10:00 PM -- 69.1 69.1 69.2 68.9 -- -- 0 0 --- 0 30.021 74.3 51 30
5/28/02 10:30 PM -- 68.8 68.8 69 68.6 -- -- 0 0 --- 0 30.012 74.6 52 30
5/28/02 11:00 PM -- 68.6 68.6 68.7 68.3 -- -- 0 0 --- 0 30.015 74.9 54 30
5/28/02 11:30 PM -- 68 68 68.3 67.7 -- -- 0 0 --- 0 30.017 76 51 30
5/29/02 12:00 AM -- 67.4 67.4 67.7 67 -- -- 0 0 --- 0 30.016 75.9 51 30
5/29/02 12:30 AM -- 67 67 67.1 66.8 -- -- 0 0 --- 0 30.012 76.2 51 30
5/29/02 1:00 AM -- 66.7 66.7 67.1 66.3 -- -- 0 0 --- 0 30.007 76.4 51 30
5/29/02 1:30 AM -- 66.3 66.3 66.5 66.1 -- -- 0 0 --- 0 30.004 76.4 52 30
5/29/02 2:00 AM -- 66.2 66.2 66.4 66.1 -- -- 0 0 --- 0 30.002 76.2 53 30
5/29/02 2:30 AM -- 66.1 66.1 66.4 65.8 -- -- 0 0 --- 0 30.001 77.5 53 30
5/29/02 3:00 AM -- 66 66 66.1 65.8 -- -- 0 0 --- 0 30.004 78.6 52 30
5/29/02 3:30 AM -- 65.9 65.9 66 65.8 -- -- 0 0 --- 0 29.999 78.8 51 30
5/29/02 4:00 AM -- 65.9 65.9 66 65.8 -- -- 0 0 --- 0 30.004 78.4 51 30
5/29/02 4:30 AM -- 65.9 65.9 66 65.8 -- -- 0 0 --- 0 30.003 78.1 51 30
5/29/02 5:00 AM -- 66 66 66.1 65.9 -- -- 0 0 --- 0 30.007 78 51 30
5/29/02 5:30 AM -- 66.1 66.1 66.2 66 -- -- 0 0 --- 0 30.013 77.9 51 30
5/29/02 6:00 AM -- 66.2 66.2 66.3 66.1 -- -- 0 0 --- 0 30.022 77.7 51 30
5/29/02 6:30 AM -- 66.3 66.3 66.4 66.2 -- -- 0 0 --- 0 30.029 77.7 52 30
5/29/02 7:00 AM -- 66.4 66.4 66.6 66.2 -- -- 0 0 --- 0 30.029 77.6 52 30
5/29/02 7:30 AM -- 66.8 66.8 67.3 66.5 -- -- 0 0 --- 0 30.026 77.5 52 30
5/29/02 8:00 AM -- 67.7 67.7 67.9 67.3 -- -- 0 0 --- 0 30.026 77.5 53 30
5/29/02 8:30 AM -- 68.7 68.7 69.5 67.9 -- -- 0 0 --- 0 30.027 77.5 52 30
5/29/02 9:00 AM -- 70.8 70.8 72.3 69.5 -- -- 0 0 --- 0 30.027 77.6 52 30
5/29/02 9:30 AM -- 71.7 71.7 72.1 71.3 -- -- 0 0 --- 0 30.025 77.6 52 30
5/29/02 10:00 AM -- 72.9 72.9 74 72.1 -- -- 0 0 --- 0 30.021 77.6 51 30
5/29/02 10:30 AM -- 75.4 75.4 77 74.1 -- -- 0 0 --- 0 30.019 77.5 51 30
5/29/02 11:00 AM -- 76.6 76.6 78 74.9 -- -- 0 2 N 0 30.016 77.7 51 30
5/29/02 11:30 AM -- 76.1 76.1 78.9 74.4 -- -- 0 0 --- 0 30.01 77.8 52 30
5/29/02 12:00 PM -- 78.1 78.1 79.4 76.8 -- -- 0 0 --- 0 30.001 77.7 51 30
5/29/02 12:30 PM -- 77.4 77.4 80.4 76.6 -- -- 0 0 --- 0 29.993 76.9 51 30
5/29/02 1:00 PM -- 79.8 79.8 81 78.7 -- -- 0 0 --- 0 29.991 76.3 51 30
5/29/02 1:30 PM -- 79.3 79.3 81.2 78.2 -- -- 0 0 --- 0 29.983 75.9 52 30
5/29/02 2:00 PM -- 79.6 79.6 82 78.2 -- -- 0 0 --- 0 29.97 75.8 53 30
5/29/02 2:30 PM -- 79.7 79.7 81.1 78.5 -- -- 0 1 NE 0 29.961 75.8 52 30
5/29/02 3:00 PM -- 80.8 80.8 81.5 80.1 -- -- 0 0 --- 0 29.953 75.8 53 30
5/29/02 3:30 PM -- 79.4 79.4 80.7 78.6 -- -- 0 0 --- 0 29.939 76.1 54 30
5/29/02 4:00 PM -- 79.4 79.4 80.2 78.7 -- -- 0 1 --- 0 29.931 76.6 54 30
5/29/02 4:30 PM -- 79.1 79.1 79.6 78.5 -- -- 0 1 --- 0 29.922 76.7 54 30
5/29/02 5:00 PM -- 77.8 77.8 78.4 76.9 -- -- 0 0 --- 0 29.914 76.7 55 30
5/29/02 5:30 PM -- 76.5 76.5 77 76 -- -- 0 1 --- 0 29.909 76.8 55 30
5/29/02 6:00 PM -- 75.8 75.8 76.6 75 -- -- 0 0 --- 0 29.898 76.9 56 30
5/29/02 6:30 PM -- 74.9 74.9 75.3 74.5 -- -- 0 0 --- 0 29.902 77 57 30
5/29/02 7:00 PM -- 74.2 74.2 74.5 74.1 -- -- 0 0 --- 0 29.909 77 57 30
5/29/02 7:30 PM -- 73.4 73.4 74.2 73 -- -- 0 0 --- 0 29.912 77 57 30
5/29/02 8:00 PM -- 72.7 72.7 73.2 72.3 -- -- 0 0 --- 0 29.91 77 57 30
5/29/02 8:30 PM -- 71.9 71.9 72.3 71.6 -- -- 0 1 --- 0 29.913 77 57 30
5/29/02 9:00 PM -- 71.2 71.2 71.7 70.9 -- -- 0 2 NE 0 29.915 77.1 58 30
5/29/02 9:30 PM -- 70.6 70.6 71 70.1 -- -- 0 0 --- 0 29.919 77.4 57 30
5/29/02 10:00 PM -- 70 70 70.3 69.7 -- -- 0 0 --- 0 29.921 77.6 57 30
5/29/02 10:30 PM -- 69.4 69.4 69.8 69 -- -- 0 0 --- 0 29.92 77.5 56 30
5/29/02 11:00 PM -- 68.6 68.6 69 68.2 -- -- 0 0 --- 0 29.917 77.8 56 30
5/29/02 11:30 PM -- 67.7 67.7 68.3 67.1 -- -- 0 0 --- 0 29.92 77.6 56 30
5/30/02 12:00 AM -- 66.8 66.8 67.3 66.3 -- -- 0 0 --- 0 29.919 77.8 57 30
5/30/02 12:30 AM -- 66.1 66.1 66.4 65.7 -- -- 0 0 --- 0 29.916 79.3 56 30
5/30/02 1:00 AM -- 65.5 65.5 65.8 65.2 -- -- 0 0 --- 0 29.908 80.4 54 30
5/30/02 1:30 AM -- 64.9 64.9 65.2 64.6 -- -- 0 0 --- 0 29.904 80.5 54 30
5/30/02 2:00 AM -- 64.6 64.6 64.9 64.4 -- -- 0 0 --- 0 29.898 80.2 54 30
5/30/02 2:30 AM -- 64.1 64.1 64.7 63.7 -- -- 0 0 --- 0 29.89 80 54 30
5/30/02 3:00 AM -- 63.6 63.6 63.9 63.3 -- -- 0 0 --- 0 29.885 79.8 54 30
5/30/02 3:30 AM -- 63.2 63.2 63.7 63 -- -- 0 0 --- 0 29.879 79.6 54 30
5/30/02 4:00 AM -- 62.9 62.9 63.1 62.5 -- -- 0 0 --- 0 29.882 79.3 54 30
5/30/02 4:30 AM -- 62.7 62.7 63.1 62.3 -- -- 0 0 --- 0 29.877 79.2 53 30
5/30/02 5:00 AM -- 62.5 62.5 62.8 62.3 -- -- 0 0 --- 0 29.877 79 53 30
5/30/02 5:30 AM -- 62.1 62.1 62.5 61.9 -- -- 0 0 --- 0 29.875 78.8 53 30
5/30/02 6:00 AM -- 62.6 62.6 63.2 62.1 -- -- 0 0 --- 0 29.885 78.6 53 30
5/30/02 6:30 AM -- 63.1 63.1 63.9 62.6 -- -- 0 0 --- 0 29.885 78.5 53 30
5/30/02 7:00 AM -- 64.6 64.6 65.7 63.6 -- -- 0 0 --- 0 29.885 78.4 53 30
5/30/02 7:30 AM -- 66 66 66.9 65.5 -- -- 0 0 --- 0 29.886 78.1 52 30
5/30/02 8:00 AM -- 66.7 66.7 67.3 65.9 -- -- 0 0 --- 0 29.894 77.4 48 30
5/30/02 8:30 AM -- 67.8 67.8 69.2 67 -- -- 0 0 --- 0 29.89 76.7 48 30
5/30/02 9:00 AM -- 69.9 69.9 70.8 69 -- -- 0 0 --- 0 29.886 75.8 48 30
5/30/02 9:30 AM -- 71.3 71.3 72.5 69.9 -- -- 0 0 --- 0 29.883 75.1 49 30
5/30/02 10:00 AM -- 73.1 73.1 73.9 72.5 -- -- 0 0 --- 0 29.877 74.6 49 30
5/30/02 10:30 AM -- 74.5 74.5 75 73.9 -- -- 0 0 --- 0 29.874 74.3 50 30
5/30/02 11:00 AM -- 75.4 75.4 77.6 74 -- -- 0 0 --- 0 29.866 73.7 49 30
5/30/02 11:30 AM -- 78.8 78.8 79.6 77.4 -- -- 0 1 --- 0 29.858 73.4 48 30
5/30/02 12:00 PM -- 79.2 79.2 81.3 77 -- -- 0 2 --- 0 29.848 73.5 48 30
5/30/02 12:30 PM -- 80.2 80.2 81.9 78.4 -- -- 0 0 --- 0 29.841 73.6 48 30
5/30/02 1:00 PM -- 81.1 81.1 82.4 79.9 -- -- 0 2 NNE 0 29.836 73.4 49 30
5/30/02 1:30 PM -- 82.2 82.2 83.4 80.8 -- -- 0 0 --- 0 29.822 73.1 50 30
5/30/02 2:00 PM -- 84 84 85.6 82.6 -- -- 0 2 ENE 0 29.811 73.4 47 30
5/30/02 2:30 PM -- 83.4 83.4 85.6 81.9 -- -- 0 1 --- 0 29.794 73.6 48 30
5/30/02 3:00 PM -- 84 84 85.4 82.2 -- -- 0 1 --- 0 29.782 73.6 46 30
5/30/02 3:30 PM -- 83.9 83.9 84.8 81.8 -- -- 0 1 --- 0 29.773 73.7 46 30
5/30/02 4:00 PM -- 82.7 82.7 85.1 80.1 -- -- 0 3 ENE 0 29.76 73.7 47 30
5/30/02 4:30 PM -- 80.7 80.7 81.8 79.6 -- -- 0 1 --- 0 29.754 73.6 48 30
5/30/02 5:00 PM -- 79.5 79.5 80 78.9 -- -- 0 3 NE 0 29.744 74 48 30
5/30/02 5:30 PM -- 78.6 78.6 78.9 78 -- -- 0 4 N 0 29.743 74.1 48 30
5/30/02 6:00 PM -- 78.5 78.5 79.2 78.1 -- -- 0 3 N 0 29.74 74.1 49 30
5/30/02 6:30 PM -- 77.7 77.7 78.1 77.3 -- -- 0 4 N 0 29.74 74.2 51 30
5/30/02 7:00 PM -- 77 77 77.3 76.6 -- -- 0 3 N 0 29.735 74.5 52 30
5/30/02 7:30 PM -- 76 76 76.6 75.4 -- -- 0 0 --- 0 29.744 74.7 52 30
5/30/02 8:00 PM -- 74.9 74.9 75.4 74.2 -- -- 0 0 --- 0 29.75 74.9 53 30
5/30/02 8:30 PM -- 73.5 73.5 74.2 72.9 -- -- 0 0 --- 0 29.739 75.1 53 30
5/30/02 9:00 PM -- 72.4 72.4 72.9 72.1 -- -- 0 0 --- 0 29.747 75.2 53 30
5/30/02 9:30 PM -- 71.7 71.7 72.1 71.4 -- -- 0 0 --- 0 29.75 75.4 53 30
5/30/02 10:00 PM -- 71 71 71.4 70.7 -- -- 0 1 --- 0 29.755 75.5 54 30
5/30/02 10:30 PM -- 70.4 70.4 70.7 70.2 -- -- 0 1 --- 0 29.76 76 55 30
5/30/02 11:00 PM -- 69.8 69.8 70.3 69.1 -- -- 0 1 --- 0 29.756 76.3 51 30
5/30/02 11:30 PM -- 68.4 68.4 69.1 67.9 -- -- 0 0 --- 0 29.758 75.9 47 30
5/31/02 12:00 AM -- 67.4 67.4 67.9 67.1 -- -- 0 0 --- 0 29.753 75.3 45 30
5/31/02 12:30 AM -- 66.9 66.9 67.4 66.5 -- -- 0 0 --- 0 29.752 74.8 48 30
5/31/02 1:00 AM -- 66.3 66.3 66.5 66 -- -- 0 0 --- 0 29.741 75.9 48 30
5/31/02 1:30 AM -- 65.8 65.8 66 65.6 -- -- 0 0 --- 0 29.736 76.9 49 30
5/31/02 2:00 AM -- 65.3 65.3 65.7 65 -- -- 0 0 --- 0 29.732 76.9 49 30
5/31/02 2:30 AM -- 64.9 64.9 65.1 64.6 -- -- 0 0 --- 0 29.726 76.6 51 30
5/31/02 3:00 AM -- 64.5 64.5 64.7 64.2 -- -- 0 0 --- 0 29.718 76.4 51 30
5/31/02 3:30 AM -- 64.1 64.1 64.3 63.9 -- -- 0 0 --- 0 29.703 76.3 52 30
5/31/02 4:00 AM -- 63.8 63.8 63.9 63.7 -- -- 0 0 --- 0 29.705 76.1 53 30
5/31/02 4:30 AM -- 63.7 63.7 63.8 63.5 -- -- 0 0 --- 0 29.699 75.9 52 30
5/31/02 5:00 AM -- 63.3 63.3 63.6 63.1 -- -- 0 0 --- 0 29.692 75.8 52 30
5/31/02 5:30 AM -- 63.2 63.2 63.5 63 -- -- 0 0 --- 0 29.692 75.7 53 30
5/31/02 6:00 AM -- 63 63 63.3 62.9 -- -- 0 0 --- 0 29.691 75.6 54 30
5/31/02 6:30 AM -- 63.5 63.5 64.2 63 -- -- 0 0 --- 0 29.687 75.6 54 30
5/31/02 7:00 AM -- 65.1 65.1 66.3 64.2 -- -- 0 0 --- 0 29.678 75.1 53 30
5/31/02 7:30 AM -- 67.3 67.3 68.1 66.4 -- -- 0 0 --- 0 29.677 74.2 54 30
5/31/02 8:00 AM -- 69.1 69.1 69.8 68 -- -- 0 0 --- 0 29.672 73.5 55 30
5/31/02 8:30 AM -- 70.9 70.9 72 69.7 -- -- 0 0 --- 0 29.681 73.5 56 30
5/31/02 9:00 AM -- 71.9 71.9 72.7 71.5 -- -- 0 0 --- 0 29.668 73.5 56 30
5/31/02 9:30 AM -- 73.1 73.1 73.9 72.6 -- -- 0 0 --- 0 29.659 73.4 56 30
5/31/02 10:00 AM -- 75 75 76.3 73.9 -- -- 0 0 --- 0 29.634 73.1 55 30
5/31/02 10:30 AM -- 77.6 77.6 78.8 76.3 -- -- 0 0 --- 0 29.621 72.9 54 30
5/31/02 11:00 AM -- 79.9 79.9 81.1 78.8 -- -- 0 0 --- 0 29.603 72.8 52 30
5/31/02 11:30 AM -- 82.1 82.1 83.4 80.9 -- -- 0 0 --- 0 29.594 72.6 54 30
5/31/02 12:00 PM -- 83.1 83.1 84 81.8 -- -- 0 3 N 0 29.586 72.5 51 30
5/31/02 12:30 PM -- 83.8 83.8 85.6 83 -- -- 0 4 N 0 29.572 72.5 52 30
5/31/02 1:00 PM -- 85 85 85.8 84 -- -- 0 4 NNE 0 29.547 72.4 50 30
5/31/02 1:30 PM -- 86.1 86.1 87.1 84.5 -- -- 0 2 NNE 0 29.529 72.4 49 30
5/31/02 2:00 PM -- 86.7 86.7 87.6 84.8 -- -- 0 3 N 0 29.505 72.7 48 30
5/31/02 2:30 PM -- 87.2 87.2 88.4 85.6 -- -- 0 4 SE 0 29.491 72.9 48 30
5/31/02 3:00 PM -- 86.8 86.8 87.7 85.8 -- -- 0 2 N 0 29.478 73.2 47 30
5/31/02 3:30 PM -- 86.7 86.7 87.7 85.6 -- -- 0 3 ENE 0 29.461 73.5 46 30
5/31/02 4:00 PM -- 85.7 85.7 87.3 84.4 -- -- 0 2 ENE 0 29.451 73.5 46 30
5/31/02 4:30 PM -- 85.1 85.1 87.7 83.8 -- -- 0 5 NNE 0 29.436 73.7 45 30
5/31/02 5:00 PM -- 84.5 84.5 85 83.7 -- -- 0 4 ENE 0 29.416 73.8 46 30
5/31/02 5:30 PM -- 84.1 84.1 84.7 83.2 -- -- 0 2 E 0 29.42 74 46 30
5/31/02 6:00 PM -- 83.1 83.1 83.8 82.2 -- -- 0 0 --- 0 29.406 74.4 45 30
5/31/02 6:30 PM -- 81.6 81.6 82.5 81.1 -- -- 0 0 --- 0 29.397 74.5 45 30
5/31/02 7:00 PM -- 81.1 81.1 81.9 80 -- -- 0 0 --- 0 29.394 74.3 45 30
5/31/02 7:30 PM -- 81 81 82.2 80 -- -- 0 0 --- 0 29.4 74.3 45 30
5/31/02 8:00 PM -- 79.9 79.9 81.1 79.1 -- -- 0 0 --- 0 29.394 74.3 44 30
5/31/02 8:30 PM -- 78.9 78.9 79.6 78.5 -- -- 0 0 --- 0 29.425 74.6 44 30
5/31/02 9:00 PM -- 72.4 72.4 79.8 67.3 -- -- 1 10 SSE 0.05 29.456 76.4 43 30
5/31/02 9:30 PM -- 68.5 68.5 70.2 67.5 -- -- 0 5 SSE 0.03 29.471 75.9 45 30
5/31/02 10:00 PM -- 70.1 70.1 71.3 68.6 -- -- 0 0 --- 0 29.481 74.8 45 30
5/31/02 10:30 PM -- 69.1 69.1 71.9 67.6 -- -- 0 0 --- 0 29.465 74.8 47 30
5/31/02 11:00 PM -- 69.3 69.3 72 67.4 -- -- 0 0 --- 0 29.467 75.3 48 30
5/31/02 11:30 PM -- 66.4 66.4 67.4 66 -- -- 0 0 --- 0 29.468 75.5 49 30